Time,TemperatureF,DewpointF,PressureIn,WindDirection,WindDirectionDegrees,WindSpeedMPH,WindSpeedGustMPH,Humidity,HourlyPrecipIn,Conditions,Clouds,dailyrainin,SolarRadiationWatts/m^2,SoftwareType,DateUTC
2013-05-25 00:00:00,72.7,57.0,29.82,NE,48,2.0,4.0,58,0.00,,,0.00,0,WeatherHawk,2013-05-25 07:00:00,
2013-05-25 00:02:00,72.5,57.3,29.82,East,97,3.0,4.0,59,0.00,,,0.00,0,WeatherHawk,2013-05-25 07:02:00,
2013-05-25 00:05:00,72.3,57.2,29.82,ESE,113,4.0,4.0,59,0.00,,,0.00,0,WeatherHawk,2013-05-25 07:05:00,
2013-05-25 00:06:00,72.3,57.6,29.82,ESE,122,4.0,4.0,60,0.00,,,0.00,0,WeatherHawk,2013-05-25 07:06:00,
2013-05-25 00:07:00,72.3,57.6,29.82,ESE,113,4.0,4.0,60,0.00,,,0.00,0,WeatherHawk,2013-05-25 07:07:00,
2013-05-25 00:12:00,72.1,57.9,29.82,East,95,4.0,0.0,61,0.00,,,0.00,0,WeatherHawk,2013-05-25 07:12:00,
2013-05-25 00:13:00,72.1,57.9,29.82,ESE,106,3.0,0.0,61,0.00,,,0.00,0,WeatherHawk,2013-05-25 07:13:00,
2013-05-25 00:17:00,72.0,57.8,29.82,East,89,1.0,0.0,61,0.00,,,0.00,0,WeatherHawk,2013-05-25 07:17:00,
2013-05-25 00:18:00,72.0,58.2,29.82,East,89,1.0,0.0,62,0.00,,,0.00,0,WeatherHawk,2013-05-25 07:18:00,
2013-05-25 00:19:00,72.0,58.2,29.82,East,95,2.0,0.0,62,0.00,,,0.00,0,WeatherHawk,2013-05-25 07:19:00,
2013-05-25 00:22:00,72.0,58.2,29.82,ESE,103,3.0,-999.0,62,0.00,,,0.00,0,WeatherHawk,2013-05-25 07:22:00,
2013-05-25 00:23:00,72.0,58.7,29.82,ESE,121,3.0,6.0,63,0.00,,,0.00,0,WeatherHawk,2013-05-25 07:23:00,
2013-05-25 00:24:00,71.8,58.0,29.82,ESE,119,3.0,6.0,62,0.00,,,0.00,0,WeatherHawk,2013-05-25 07:24:00,
2013-05-25 00:25:00,71.8,58.0,29.82,SE,125,4.0,6.0,62,0.00,,,0.00,0,WeatherHawk,2013-05-25 07:25:00,
2013-05-25 00:31:00,71.8,59.4,29.82,ESE,109,5.0,0.0,65,0.00,,,0.00,1,WeatherHawk,2013-05-25 07:31:00,
2013-05-25 00:32:00,71.8,58.9,29.82,East,99,5.0,0.0,64,0.00,,,0.00,0,WeatherHawk,2013-05-25 07:32:00,
2013-05-25 00:36:00,71.6,59.2,29.82,ESE,113,4.0,0.0,65,0.00,,,0.00,0,WeatherHawk,2013-05-25 07:36:00,
2013-05-25 00:37:00,71.6,59.2,29.82,ESE,113,4.0,0.0,65,0.00,,,0.00,0,WeatherHawk,2013-05-25 07:37:00,
2013-05-25 00:38:00,71.4,59.5,29.82,East,96,3.0,0.0,66,0.00,,,0.00,0,WeatherHawk,2013-05-25 07:38:00,
2013-05-25 00:40:00,71.4,59.5,29.82,ENE,78,2.0,0.0,66,0.00,,,0.00,0,WeatherHawk,2013-05-25 07:40:00,
2013-05-25 00:42:00,71.4,59.9,29.82,ESE,115,4.0,0.0,67,0.00,,,0.00,0,WeatherHawk,2013-05-25 07:42:00,
2013-05-25 00:45:00,71.2,59.7,29.82,ENE,64,1.0,0.0,67,0.00,,,0.00,0,WeatherHawk,2013-05-25 07:45:00,
2013-05-25 00:46:00,71.2,59.7,29.82,ENE,68,2.0,0.0,67,0.00,,,0.00,0,WeatherHawk,2013-05-25 07:46:00,
2013-05-25 00:49:00,71.1,60.0,29.82,East,96,3.0,0.0,68,0.00,,,0.00,0,WeatherHawk,2013-05-25 07:49:00,
2013-05-25 00:50:00,71.1,60.0,29.82,ESE,109,3.0,4.0,68,0.00,,,0.00,0,WeatherHawk,2013-05-25 07:50:00,
2013-05-25 00:52:00,71.1,60.0,29.82,ESE,107,3.0,4.0,68,0.00,,,0.00,0,WeatherHawk,2013-05-25 07:52:00,
2013-05-25 00:55:00,71.1,60.0,29.82,ESE,107,4.0,4.0,68,0.00,,,0.00,0,WeatherHawk,2013-05-25 07:55:00,
2013-05-25 00:57:00,70.9,60.2,29.82,ESE,112,4.0,4.0,69,0.00,,,0.00,0,WeatherHawk,2013-05-25 07:57:00,
2013-05-25 00:58:00,70.9,60.6,29.81,SE,124,6.0,0.0,70,0.00,,,0.00,0,WeatherHawk,2013-05-25 07:58:00,
2013-05-25 00:59:00,70.9,60.6,29.81,ESE,111,6.0,0.0,70,0.00,,,0.00,0,WeatherHawk,2013-05-25 07:59:00,
2013-05-25 01:00:00,70.9,60.6,29.81,ESE,104,7.0,0.0,70,0.00,,,0.00,1,WeatherHawk,2013-05-25 08:00:00,
2013-05-25 01:04:00,70.9,60.6,29.81,East,94,6.0,0.0,70,0.00,,,0.00,0,WeatherHawk,2013-05-25 08:04:00,
2013-05-25 01:06:00,70.7,60.4,29.81,East,97,4.0,0.0,70,0.00,,,0.00,0,WeatherHawk,2013-05-25 08:06:00,
2013-05-25 01:07:00,70.7,60.4,29.81,East,97,4.0,0.0,70,0.00,,,0.00,0,WeatherHawk,2013-05-25 08:07:00,
2013-05-25 01:08:00,70.7,60.8,29.81,East,88,4.0,0.0,71,0.00,,,0.00,0,WeatherHawk,2013-05-25 08:08:00,
2013-05-25 01:09:00,70.7,60.8,29.81,ENE,77,4.0,0.0,71,0.00,,,0.00,0,WeatherHawk,2013-05-25 08:09:00,
2013-05-25 01:12:00,70.7,60.8,29.82,ENE,74,4.0,0.0,71,0.00,,,0.00,0,WeatherHawk,2013-05-25 08:12:00,
2013-05-25 01:17:00,70.3,60.1,29.82,NE,41,4.0,0.0,70,0.00,,,0.00,0,WeatherHawk,2013-05-25 08:17:00,
2013-05-25 01:21:00,70.0,59.3,29.82,NNE,13,4.0,0.0,69,0.00,,,0.00,0,WeatherHawk,2013-05-25 08:21:00,
2013-05-25 01:22:00,70.0,59.3,29.82,North,9,3.0,0.0,69,0.00,,,0.00,0,WeatherHawk,2013-05-25 08:22:00,
2013-05-25 01:27:00,69.8,58.3,29.82,NNW,329,2.0,0.0,67,0.00,,,0.00,0,WeatherHawk,2013-05-25 08:27:00,
2013-05-25 01:30:00,69.1,58.5,29.82,NNW,346,4.0,0.0,69,0.00,,,0.00,0,WeatherHawk,2013-05-25 08:30:00,
2013-05-25 01:32:00,68.9,58.7,29.82,North,356,4.0,0.0,70,0.00,,,0.00,0,WeatherHawk,2013-05-25 08:32:00,
2013-05-25 01:33:00,68.9,59.1,29.82,North,359,4.0,0.0,71,0.00,,,0.00,0,WeatherHawk,2013-05-25 08:33:00,
2013-05-25 01:34:00,69.1,59.7,29.81,North,6,4.0,0.0,72,0.00,,,0.00,0,WeatherHawk,2013-05-25 08:34:00,
2013-05-25 01:37:00,69.3,59.8,29.81,NNE,18,3.0,0.0,72,0.00,,,0.00,0,WeatherHawk,2013-05-25 08:37:00,
2013-05-25 01:39:00,69.6,59.8,29.81,NE,41,3.0,0.0,71,0.00,,,0.00,0,WeatherHawk,2013-05-25 08:39:00,
2013-05-25 01:42:00,69.6,59.8,29.81,NE,41,3.0,-999.0,71,0.00,,,0.00,0,WeatherHawk,2013-05-25 08:42:00,
2013-05-25 01:44:00,69.6,59.8,29.81,NE,49,3.0,0.0,71,0.00,,,0.00,0,WeatherHawk,2013-05-25 08:44:00,
2013-05-25 01:46:00,69.6,59.8,29.81,NE,52,3.0,0.0,71,0.00,,,0.00,1,WeatherHawk,2013-05-25 08:46:00,
2013-05-25 01:47:00,69.6,59.8,29.81,NE,52,3.0,0.0,71,0.00,,,0.00,0,WeatherHawk,2013-05-25 08:47:00,
2013-05-25 01:50:00,69.6,60.2,29.81,NE,50,3.0,0.0,72,0.00,,,0.00,0,WeatherHawk,2013-05-25 08:50:00,
2013-05-25 01:51:00,69.6,60.2,29.81,NE,46,4.0,0.0,72,0.00,,,0.00,0,WeatherHawk,2013-05-25 08:51:00,
2013-05-25 01:52:00,69.6,60.2,29.81,NE,46,4.0,0.0,72,0.00,,,0.00,0,WeatherHawk,2013-05-25 08:52:00,
2013-05-25 01:54:00,69.8,60.0,29.81,NE,44,4.0,0.0,71,0.00,,,0.00,0,WeatherHawk,2013-05-25 08:54:00,
2013-05-25 01:56:00,69.8,60.0,29.81,NE,46,4.0,0.0,71,0.00,,,0.00,0,WeatherHawk,2013-05-25 08:56:00,
2013-05-25 01:57:00,70.0,60.1,29.81,NE,46,4.0,0.0,71,0.00,,,0.00,0,WeatherHawk,2013-05-25 08:57:00,
2013-05-25 01:58:00,70.0,60.1,29.81,NE,45,4.0,0.0,71,0.00,,,0.00,0,WeatherHawk,2013-05-25 08:58:00,
2013-05-25 02:02:00,70.2,59.9,29.81,NE,48,4.0,4.0,70,0.00,,,0.00,1,WeatherHawk,2013-05-25 09:02:00,
2013-05-25 02:07:00,70.2,59.1,29.81,NE,54,4.0,4.0,68,0.00,,,0.00,0,WeatherHawk,2013-05-25 09:07:00,
2013-05-25 02:09:00,70.2,59.1,29.81,NE,56,5.0,0.0,68,0.00,,,0.00,0,WeatherHawk,2013-05-25 09:09:00,
2013-05-25 02:12:00,70.0,58.5,29.81,NE,51,4.0,0.0,67,0.00,,,0.00,0,WeatherHawk,2013-05-25 09:12:00,
2013-05-25 02:13:00,70.0,58.5,29.81,NE,50,4.0,-999.0,67,0.00,,,0.00,0,WeatherHawk,2013-05-25 09:13:00,
2013-05-25 02:18:00,69.6,59.0,29.81,NE,43,4.0,0.0,69,0.00,,,0.00,0,WeatherHawk,2013-05-25 09:18:00,
2013-05-25 02:19:00,69.4,58.8,29.81,NE,45,4.0,0.0,69,0.00,,,0.00,1,WeatherHawk,2013-05-25 09:19:00,
2013-05-25 02:23:00,69.3,58.6,29.81,NE,49,4.0,5.0,69,0.00,,,0.00,0,WeatherHawk,2013-05-25 09:23:00,
2013-05-25 02:24:00,69.3,59.0,29.81,NE,53,4.0,5.0,70,0.00,,,0.00,0,WeatherHawk,2013-05-25 09:24:00,
2013-05-25 02:25:00,69.3,59.4,29.81,NE,56,4.0,5.0,71,0.00,,,0.00,1,WeatherHawk,2013-05-25 09:25:00,
2013-05-25 02:28:00,69.1,59.7,29.81,ENE,57,4.0,0.0,72,0.00,,,0.00,0,WeatherHawk,2013-05-25 09:28:00,
2013-05-25 02:30:00,69.1,59.7,29.81,NE,48,4.0,4.0,72,0.00,,,0.00,0,WeatherHawk,2013-05-25 09:30:00,
2013-05-25 02:32:00,69.1,60.1,29.81,NE,44,4.0,4.0,73,0.00,,,0.00,0,WeatherHawk,2013-05-25 09:32:00,
2013-05-25 02:33:00,69.1,60.1,29.81,NE,44,4.0,-999.0,73,0.00,,,0.00,0,WeatherHawk,2013-05-25 09:33:00,
2013-05-25 02:38:00,69.1,60.1,29.81,NE,44,4.0,4.0,73,0.00,,,0.00,0,WeatherHawk,2013-05-25 09:38:00,
2013-05-25 02:41:00,71.4,53.9,29.81,ENE,60,3.0,4.0,54,0.00,,,0.00,0,WeatherHawk,2013-05-25 09:41:00,
2013-05-25 02:42:00,71.6,53.5,29.81,ENE,62,3.0,4.0,53,0.00,,,0.00,1,WeatherHawk,2013-05-25 09:42:00,
2013-05-25 02:44:00,71.8,55.2,29.81,ENE,58,3.0,4.0,56,0.00,,,0.00,0,WeatherHawk,2013-05-25 09:44:00,
2013-05-25 02:45:00,71.8,54.2,29.81,ENE,61,4.0,4.0,54,0.00,,,0.00,0,WeatherHawk,2013-05-25 09:45:00,
2013-05-25 02:47:00,71.8,55.7,29.81,ENE,59,3.0,4.0,57,0.00,,,0.00,0,WeatherHawk,2013-05-25 09:47:00,
2013-05-25 02:48:00,71.8,55.7,29.81,ENE,59,3.0,-999.0,57,0.00,,,0.00,0,WeatherHawk,2013-05-25 09:48:00,
2013-05-25 02:53:00,70.5,58.2,29.81,ENE,64,3.0,4.0,65,0.00,,,0.00,0,WeatherHawk,2013-05-25 09:53:00,
2013-05-25 02:56:00,69.6,58.6,29.81,ENE,60,3.0,4.0,68,0.00,,,0.00,0,WeatherHawk,2013-05-25 09:56:00,
2013-05-25 02:58:00,69.6,59.0,29.81,NE,53,3.0,4.0,69,0.00,,,0.00,0,WeatherHawk,2013-05-25 09:58:00,
2013-05-25 03:00:00,69.4,59.2,29.81,NE,53,2.0,4.0,70,0.00,,,0.00,0,WeatherHawk,2013-05-25 10:00:00,
2013-05-25 03:03:00,69.4,57.6,29.81,NE,56,2.0,4.0,66,0.00,,,0.00,0,WeatherHawk,2013-05-25 10:03:00,
2013-05-25 03:05:00,69.6,59.0,29.81,NE,48,2.0,4.0,69,0.00,,,0.00,0,WeatherHawk,2013-05-25 10:05:00,
2013-05-25 03:07:00,69.6,57.7,29.81,NE,47,2.0,4.0,66,0.00,,,0.00,0,WeatherHawk,2013-05-25 10:07:00,
2013-05-25 03:08:00,69.6,57.7,29.81,NE,47,2.0,4.0,66,0.00,,,0.00,0,WeatherHawk,2013-05-25 10:08:00,
2013-05-25 03:12:00,69.4,58.4,29.81,NE,44,2.0,0.0,68,0.00,,,0.00,0,WeatherHawk,2013-05-25 10:12:00,
2013-05-25 03:13:00,69.4,58.4,29.81,NE,44,2.0,0.0,68,0.00,,,0.00,0,WeatherHawk,2013-05-25 10:13:00,
2013-05-25 03:15:00,69.3,58.2,29.81,NE,55,3.0,0.0,68,0.00,,,0.00,0,WeatherHawk,2013-05-25 10:15:00,
2013-05-25 03:18:00,69.4,57.2,29.81,ENE,65,2.0,0.0,65,0.00,,,0.00,0,WeatherHawk,2013-05-25 10:18:00,
2013-05-25 03:23:00,70.3,56.7,29.81,ENE,60,3.0,3.0,62,0.00,,,0.00,0,WeatherHawk,2013-05-25 10:23:00,
2013-05-25 03:24:00,70.7,54.2,29.81,ENE,67,2.0,3.0,56,0.00,,,0.00,0,WeatherHawk,2013-05-25 10:24:00,
2013-05-25 03:28:00,70.7,54.7,29.81,ENE,67,2.0,-999.0,57,0.00,,,0.00,0,WeatherHawk,2013-05-25 10:28:00,
2013-05-25 03:31:00,70.2,52.7,29.81,East,91,2.0,4.0,54,0.00,,,0.00,0,WeatherHawk,2013-05-25 10:31:00,
2013-05-25 03:33:00,70.3,52.4,29.81,East,88,2.0,4.0,53,0.00,,,0.00,0,WeatherHawk,2013-05-25 10:33:00,
2013-05-25 03:34:00,70.5,54.5,29.81,East,84,3.0,4.0,57,0.00,,,0.00,0,WeatherHawk,2013-05-25 10:34:00,
2013-05-25 03:37:00,70.2,54.7,29.81,East,86,2.0,4.0,58,0.00,,,0.00,0,WeatherHawk,2013-05-25 10:37:00,
2013-05-25 03:38:00,70.2,54.7,29.81,East,86,2.0,4.0,58,0.00,,,0.00,0,WeatherHawk,2013-05-25 10:38:00,
2013-05-25 03:40:00,70.0,54.0,29.81,East,86,2.0,0.0,57,0.00,,,0.00,0,WeatherHawk,2013-05-25 10:40:00,
2013-05-25 03:41:00,70.0,52.1,29.81,East,99,2.0,0.0,53,0.00,,,0.00,0,WeatherHawk,2013-05-25 10:41:00,
2013-05-25 03:43:00,69.8,52.9,29.81,ESE,118,2.0,0.0,55,0.00,,,0.00,0,WeatherHawk,2013-05-25 10:43:00,
2013-05-25 03:45:00,69.8,49.8,29.81,ESE,102,2.0,0.0,49,0.00,,,0.00,0,WeatherHawk,2013-05-25 10:45:00,
2013-05-25 03:48:00,70.0,51.0,29.81,East,96,2.0,0.0,51,0.00,,,0.00,0,WeatherHawk,2013-05-25 10:48:00,
2013-05-25 03:52:00,70.0,51.5,29.81,NW,326,3.0,0.0,52,0.00,,,0.00,0,WeatherHawk,2013-05-25 10:52:00,
2013-05-25 03:53:00,70.0,51.5,29.81,NW,326,3.0,0.0,52,0.00,,,0.00,0,WeatherHawk,2013-05-25 10:53:00,
2013-05-25 03:58:00,69.1,47.4,29.81,NNE,26,1.0,3.0,46,0.00,,,0.00,1,WeatherHawk,2013-05-25 10:58:00,
2013-05-25 04:00:00,69.8,50.8,29.81,NNE,15,2.0,5.0,51,0.00,,,0.00,0,WeatherHawk,2013-05-25 11:00:00,
2013-05-25 04:03:00,69.8,50.8,29.81,NNE,15,2.0,5.0,51,0.00,,,0.00,0,WeatherHawk,2013-05-25 11:03:00,
2013-05-25 04:05:00,70.3,49.1,29.81,ENE,74,2.0,5.0,47,0.00,,,0.00,0,WeatherHawk,2013-05-25 11:05:00,
2013-05-25 04:07:00,70.3,48.0,29.81,East,93,2.0,5.0,45,0.00,,,0.00,0,WeatherHawk,2013-05-25 11:07:00,
2013-05-25 04:08:00,70.3,48.0,29.81,East,93,2.0,5.0,45,0.00,,,0.00,0,WeatherHawk,2013-05-25 11:08:00,
2013-05-25 04:13:00,70.7,48.9,29.81,ENE,77,1.0,-999.0,46,0.00,,,0.00,0,WeatherHawk,2013-05-25 11:13:00,
2013-05-25 04:14:00,70.5,50.4,29.81,NNE,26,2.0,0.0,49,0.00,,,0.00,0,WeatherHawk,2013-05-25 11:14:00,
2013-05-25 04:18:00,70.3,48.0,29.81,NE,39,2.0,0.0,45,0.00,,,0.00,0,WeatherHawk,2013-05-25 11:18:00,
2013-05-25 04:23:00,71.1,44.2,29.81,NNE,31,1.0,0.0,38,0.00,,,0.00,0,WeatherHawk,2013-05-25 11:23:00,
2013-05-25 04:24:00,71.4,41.6,29.82,North,5,2.0,0.0,34,0.00,,,0.00,0,WeatherHawk,2013-05-25 11:24:00,
2013-05-25 04:26:00,71.1,49.2,29.82,North,5,3.0,0.0,46,0.00,,,0.00,0,WeatherHawk,2013-05-25 11:26:00,
2013-05-25 04:30:00,70.7,43.8,29.82,North,11,2.0,0.0,38,0.00,,,0.00,0,WeatherHawk,2013-05-25 11:30:00,
2013-05-25 04:32:00,70.9,44.7,29.82,NE,34,2.0,0.0,39,0.00,,,0.00,0,WeatherHawk,2013-05-25 11:32:00,
2013-05-25 04:33:00,70.9,44.7,29.82,NE,34,2.0,3.0,39,0.00,,,0.00,0,WeatherHawk,2013-05-25 11:33:00,
2013-05-25 04:34:00,70.9,52.4,29.82,North,11,4.0,4.0,52,0.00,,,0.00,0,WeatherHawk,2013-05-25 11:34:00,
2013-05-25 04:38:00,70.3,46.1,29.82,North,5,2.0,3.0,42,0.00,,,0.00,0,WeatherHawk,2013-05-25 11:38:00,
2013-05-25 04:41:00,68.0,54.5,29.82,North,1,4.0,0.0,62,0.00,,,0.00,0,WeatherHawk,2013-05-25 11:41:00,
2013-05-25 04:43:00,67.6,55.4,29.82,North,2,5.0,0.0,65,0.00,,,0.00,0,WeatherHawk,2013-05-25 11:43:00,
2013-05-25 04:47:00,67.8,52.5,29.82,North,357,6.0,-999.0,58,0.00,,,0.00,0,WeatherHawk,2013-05-25 11:47:00,
2013-05-25 04:50:00,67.6,55.9,29.83,North,10,5.0,0.0,66,0.00,,,0.00,0,WeatherHawk,2013-05-25 11:50:00,
2013-05-25 04:52:00,67.5,54.8,29.83,North,3,6.0,-999.0,64,0.00,,,0.00,0,WeatherHawk,2013-05-25 11:52:00,
2013-05-25 04:54:00,67.5,54.4,29.83,North,8,5.0,7.0,63,0.00,,,0.00,0,WeatherHawk,2013-05-25 11:54:00,
2013-05-25 04:57:00,67.6,54.1,29.83,NNE,15,5.0,7.0,62,0.00,,,0.00,1,WeatherHawk,2013-05-25 11:57:00,
2013-05-25 05:02:00,68.0,53.6,29.83,North,11,5.0,0.0,60,0.00,,,0.00,0,WeatherHawk,2013-05-25 12:02:00,
2013-05-25 05:03:00,68.2,53.3,29.83,NNE,21,5.0,0.0,59,0.00,,,0.00,0,WeatherHawk,2013-05-25 12:03:00,
2013-05-25 05:07:00,67.3,53.4,19.95,NE,39,4.0,0.0,61,0.00,,,0.00,0,WeatherHawk,2013-05-25 12:07:00,
2013-05-25 05:12:00,66.7,55.0,29.83,NE,36,4.0,0.0,66,0.00,,,0.00,0,WeatherHawk,2013-05-25 12:12:00,
2013-05-25 05:13:00,66.6,55.3,29.83,NNE,26,5.0,0.0,67,0.00,,,0.00,0,WeatherHawk,2013-05-25 12:13:00,
2013-05-25 05:14:00,66.4,55.1,29.83,NNE,31,5.0,0.0,67,0.00,,,0.00,0,WeatherHawk,2013-05-25 12:14:00,
2013-05-25 05:17:00,66.4,55.1,29.83,NNE,29,4.0,-999.0,67,0.00,,,0.00,0,WeatherHawk,2013-05-25 12:17:00,
2013-05-25 05:19:00,66.4,55.1,29.83,NNE,30,4.0,0.0,67,0.00,,,0.00,1,WeatherHawk,2013-05-25 12:19:00,
2013-05-25 05:22:00,66.6,54.8,29.83,NNE,23,4.0,0.0,66,0.00,,,0.00,2,WeatherHawk,2013-05-25 12:22:00,
2013-05-25 05:24:00,67.1,55.8,29.83,NNE,25,4.0,0.0,67,0.00,,,0.00,3,WeatherHawk,2013-05-25 12:24:00,
2013-05-25 05:27:00,67.3,55.9,29.83,NNE,23,4.0,0.0,67,0.00,,,0.00,5,WeatherHawk,2013-05-25 12:27:00,
2013-05-25 05:32:00,66.7,54.2,29.84,North,10,5.0,0.0,64,0.00,,,0.00,6,WeatherHawk,2013-05-25 12:32:00,
2013-05-25 05:35:00,67.1,54.1,29.84,NNE,13,5.0,0.0,63,0.00,,,0.00,9,WeatherHawk,2013-05-25 12:35:00,
2013-05-25 05:37:00,67.3,54.2,29.84,North,11,4.0,0.0,63,0.00,,,0.00,8,WeatherHawk,2013-05-25 12:37:00,
2013-05-25 05:38:00,67.3,54.2,29.84,North,10,4.0,0.0,63,0.00,,,0.00,11,WeatherHawk,2013-05-25 12:38:00,
2013-05-25 05:42:00,67.3,53.4,29.84,NNE,12,5.0,5.0,61,0.00,,,0.00,19,WeatherHawk,2013-05-25 12:42:00,
2013-05-25 05:44:00,67.6,52.8,29.84,North,8,4.0,5.0,59,0.00,,,0.00,22,WeatherHawk,2013-05-25 12:44:00,
2013-05-25 05:47:00,68.2,51.9,29.84,North,4,4.0,5.0,56,0.00,,,0.00,28,WeatherHawk,2013-05-25 12:47:00,
2013-05-25 05:50:00,68.9,49.5,29.84,North,3,4.0,0.0,50,0.00,,,0.00,38,WeatherHawk,2013-05-25 12:50:00,
2013-05-25 05:52:00,68.9,49.5,29.84,North,4,5.0,5.0,50,0.00,,,0.00,34,WeatherHawk,2013-05-25 12:52:00,
2013-05-25 05:55:00,69.8,46.3,29.84,North,6,4.0,5.0,43,0.00,,,0.00,49,WeatherHawk,2013-05-25 12:55:00,
2013-05-25 05:57:00,70.2,46.0,29.84,North,9,5.0,5.0,42,0.00,,,0.00,56,WeatherHawk,2013-05-25 12:57:00,
2013-05-25 06:02:00,70.0,44.5,29.84,North,5,4.0,5.0,40,0.00,,,0.00,66,WeatherHawk,2013-05-25 13:02:00,
2013-05-25 06:03:00,70.2,44.7,29.84,North,11,4.0,5.0,40,0.00,,,0.00,79,WeatherHawk,2013-05-25 13:03:00,
2013-05-25 06:07:00,70.2,41.9,29.84,North,9,5.0,5.0,36,0.00,,,0.00,94,WeatherHawk,2013-05-25 13:07:00,
2013-05-25 06:08:00,70.3,42.1,29.85,North,8,4.0,0.0,36,0.00,,,0.00,98,WeatherHawk,2013-05-25 13:08:00,
2013-05-25 06:10:00,70.5,41.5,29.85,NNE,13,4.0,0.0,35,0.00,,,0.00,94,WeatherHawk,2013-05-25 13:10:00,
2013-05-25 06:12:00,70.5,41.5,29.85,NNE,13,4.0,-999.0,35,0.00,,,0.00,94,WeatherHawk,2013-05-25 13:12:00,
2013-05-25 06:13:00,70.7,40.2,29.85,NNE,16,5.0,5.0,33,0.00,,,0.00,112,WeatherHawk,2013-05-25 13:13:00,
2013-05-25 06:17:00,71.1,38.9,29.85,NNE,14,4.0,5.0,31,0.00,,,0.00,94,WeatherHawk,2013-05-25 13:17:00,
2013-05-25 06:18:00,71.1,36.3,29.85,North,7,6.0,0.0,28,0.00,,,0.00,99,WeatherHawk,2013-05-25 13:18:00,
2013-05-25 06:19:00,71.2,34.6,29.85,North,6,7.0,0.0,26,0.00,,,0.00,98,WeatherHawk,2013-05-25 13:19:00,
2013-05-25 06:22:00,71.4,34.7,29.85,North,3,5.0,6.0,26,0.00,,,0.00,138,WeatherHawk,2013-05-25 13:22:00,
2013-05-25 06:27:00,71.4,35.7,29.85,North,10,6.0,6.0,27,0.00,,,0.00,155,WeatherHawk,2013-05-25 13:27:00,
2013-05-25 06:30:00,71.4,35.7,29.85,North,8,6.0,0.0,27,0.00,,,0.00,161,WeatherHawk,2013-05-25 13:30:00,
2013-05-25 06:32:00,71.4,35.7,29.85,North,10,6.0,8.0,27,0.00,,,0.00,179,WeatherHawk,2013-05-25 13:32:00,
2013-05-25 06:34:00,71.4,38.4,29.85,North,6,6.0,8.0,30,0.00,,,0.00,149,WeatherHawk,2013-05-25 13:34:00,
2013-05-25 06:35:00,71.2,38.2,29.85,North,10,5.0,8.0,30,0.00,,,0.00,166,WeatherHawk,2013-05-25 13:35:00,
2013-05-25 06:36:00,71.2,38.2,29.85,North,9,6.0,8.0,30,0.00,,,0.00,207,WeatherHawk,2013-05-25 13:36:00,
2013-05-25 06:37:00,71.2,38.2,29.85,North,11,5.0,8.0,30,0.00,,,0.00,214,WeatherHawk,2013-05-25 13:37:00,
2013-05-25 06:38:00,71.2,38.2,29.85,North,11,5.0,0.0,30,0.00,,,0.00,209,WeatherHawk,2013-05-25 13:38:00,
2013-05-25 06:42:00,71.2,36.5,29.85,NNE,12,6.0,0.0,28,0.00,,,0.00,165,WeatherHawk,2013-05-25 13:42:00,
2013-05-25 06:43:00,71.6,35.8,29.85,NNE,12,5.0,0.0,27,0.00,,,0.00,166,WeatherHawk,2013-05-25 13:43:00,
2013-05-25 06:46:00,71.8,36.0,29.85,NNE,17,4.0,0.0,27,0.00,,,0.00,179,WeatherHawk,2013-05-25 13:46:00,
2013-05-25 06:47:00,72.0,38.0,29.85,NNE,21,4.0,-999.0,29,0.00,,,0.00,182,WeatherHawk,2013-05-25 13:47:00,
2013-05-25 06:49:00,71.8,39.5,29.85,NNE,23,4.0,0.0,31,0.00,,,0.00,193,WeatherHawk,2013-05-25 13:49:00,
2013-05-25 06:50:00,71.8,39.5,29.85,NNE,21,4.0,0.0,31,0.00,,,0.00,197,WeatherHawk,2013-05-25 13:50:00,
2013-05-25 06:52:00,71.8,39.5,29.85,NNE,21,4.0,0.0,31,0.00,,,0.00,197,WeatherHawk,2013-05-25 13:52:00,
2013-05-25 06:55:00,71.8,40.3,29.85,North,10,2.0,0.0,32,0.00,,,0.00,220,WeatherHawk,2013-05-25 13:55:00,
2013-05-25 06:56:00,71.8,39.5,29.85,North,3,3.0,0.0,31,0.00,,,0.00,231,WeatherHawk,2013-05-25 13:56:00,
2013-05-25 06:57:00,71.8,37.8,29.85,North,0,3.0,0.0,29,0.00,,,0.00,239,WeatherHawk,2013-05-25 13:57:00,
2013-05-25 07:02:00,72.3,33.5,29.85,NNW,332,4.0,-999.0,24,0.00,,,0.00,229,WeatherHawk,2013-05-25 14:02:00,
2013-05-25 07:03:00,72.5,29.1,29.85,NNW,328,3.0,0.0,20,0.00,,,0.00,234,WeatherHawk,2013-05-25 14:03:00,
2013-05-25 07:07:00,72.9,29.4,29.85,NNW,342,3.0,4.0,20,0.00,,,0.00,229,WeatherHawk,2013-05-25 14:07:00,
2013-05-25 07:10:00,73.4,28.6,29.86,North,0,3.0,4.0,19,0.00,,,0.00,265,WeatherHawk,2013-05-25 14:10:00,
2013-05-25 07:12:00,73.4,28.6,29.86,North,2,4.0,4.0,19,0.00,,,0.00,267,WeatherHawk,2013-05-25 14:12:00,
2013-05-25 07:13:00,73.6,28.8,29.86,North,2,3.0,4.0,19,0.00,,,0.00,291,WeatherHawk,2013-05-25 14:13:00,
2013-05-25 07:16:00,73.9,30.3,29.86,North,351,3.0,4.0,20,0.00,,,0.00,304,WeatherHawk,2013-05-25 14:16:00,
2013-05-25 07:17:00,73.9,30.3,29.86,North,350,3.0,4.0,20,0.00,,,0.00,308,WeatherHawk,2013-05-25 14:17:00,
2013-05-25 07:18:00,73.9,27.8,29.86,NNW,335,4.0,0.0,18,0.00,,,0.00,323,WeatherHawk,2013-05-25 14:18:00,
2013-05-25 07:19:00,74.1,27.9,29.86,NNW,346,4.0,0.0,18,0.00,,,0.00,328,WeatherHawk,2013-05-25 14:19:00,
2013-05-25 07:23:00,74.3,26.7,29.86,North,351,5.0,0.0,17,0.00,,,0.00,360,WeatherHawk,2013-05-25 14:23:00,
2013-05-25 07:24:00,74.3,26.7,29.86,North,357,5.0,0.0,17,0.00,,,0.00,362,WeatherHawk,2013-05-25 14:24:00,
2013-05-25 07:25:00,74.3,26.7,29.86,North,352,5.0,0.0,17,0.00,,,0.00,370,WeatherHawk,2013-05-25 14:25:00,
2013-05-25 07:26:00,74.3,28.0,29.86,North,349,3.0,0.0,18,0.00,,,0.00,375,WeatherHawk,2013-05-25 14:26:00,
2013-05-25 07:32:00,74.5,32.0,29.86,North,1,4.0,5.0,21,0.00,,,0.00,387,WeatherHawk,2013-05-25 14:32:00,
2013-05-25 07:34:00,74.5,32.0,29.86,North,11,5.0,5.0,21,0.00,,,0.00,402,WeatherHawk,2013-05-25 14:34:00,
2013-05-25 07:35:00,74.3,30.6,29.86,North,7,5.0,5.0,20,0.00,,,0.00,409,WeatherHawk,2013-05-25 14:35:00,
2013-05-25 07:37:00,74.3,31.8,29.86,North,10,4.0,5.0,21,0.00,,,0.00,409,WeatherHawk,2013-05-25 14:37:00,
2013-05-25 07:39:00,74.5,32.0,29.86,NNE,29,5.0,0.0,21,0.00,,,0.00,397,WeatherHawk,2013-05-25 14:39:00,
2013-05-25 07:40:00,74.5,33.1,29.86,NNE,16,4.0,0.0,22,0.00,,,0.00,396,WeatherHawk,2013-05-25 14:40:00,
2013-05-25 07:42:00,74.5,33.1,29.86,NNE,22,5.0,0.0,22,0.00,,,0.00,436,WeatherHawk,2013-05-25 14:42:00,
2013-05-25 07:45:00,74.7,34.4,29.86,NNE,21,6.0,0.0,23,0.00,,,0.00,452,WeatherHawk,2013-05-25 14:45:00,
2013-05-25 07:47:00,74.7,34.4,29.86,NNE,21,6.0,0.0,23,0.00,,,0.00,452,WeatherHawk,2013-05-25 14:47:00,
2013-05-25 07:49:00,74.7,33.3,29.87,NE,35,4.0,0.0,22,0.00,,,0.00,470,WeatherHawk,2013-05-25 14:49:00,
2013-05-25 07:51:00,75.0,32.4,29.87,NNE,24,5.0,6.0,21,0.00,,,0.00,479,WeatherHawk,2013-05-25 14:51:00,
2013-05-25 07:52:00,75.0,32.4,29.87,NNE,27,4.0,-999.0,21,0.00,,,0.00,485,WeatherHawk,2013-05-25 14:52:00,
2013-05-25 07:53:00,75.2,32.6,29.87,NE,42,4.0,6.0,21,0.00,,,0.00,489,WeatherHawk,2013-05-25 14:53:00,
2013-05-25 07:58:00,75.6,31.7,29.87,ENE,59,4.0,0.0,20,0.00,,,0.00,512,WeatherHawk,2013-05-25 14:58:00,
2013-05-25 08:00:00,75.9,30.7,29.87,NE,53,5.0,6.0,19,0.00,,,0.00,519,WeatherHawk,2013-05-25 15:00:00,
2013-05-25 08:02:00,76.1,30.8,29.87,ENE,71,4.0,6.0,19,0.00,,,0.00,523,WeatherHawk,2013-05-25 15:02:00,
2013-05-25 08:04:00,76.5,35.9,29.87,East,83,6.0,6.0,23,0.00,,,0.00,528,WeatherHawk,2013-05-25 15:04:00,
2013-05-25 08:07:00,76.5,39.0,29.88,East,86,5.0,6.0,26,0.00,,,0.00,544,WeatherHawk,2013-05-25 15:07:00,
2013-05-25 08:09:00,76.5,37.0,29.88,ENE,75,5.0,0.0,24,0.00,,,0.00,552,WeatherHawk,2013-05-25 15:09:00,
2013-05-25 08:12:00,76.5,39.0,29.88,East,81,6.0,0.0,26,0.00,,,0.00,559,WeatherHawk,2013-05-25 15:12:00,
2013-05-25 08:13:00,76.5,40.0,29.88,East,89,4.0,0.0,27,0.00,,,0.00,561,WeatherHawk,2013-05-25 15:13:00,
2013-05-25 08:16:00,76.5,43.6,29.88,East,94,4.0,0.0,31,0.00,,,0.00,515,WeatherHawk,2013-05-25 15:16:00,
2013-05-25 08:17:00,76.3,43.4,29.88,East,88,4.0,0.0,31,0.00,,,0.00,570,WeatherHawk,2013-05-25 15:17:00,
2013-05-25 08:19:00,76.1,42.4,29.88,ESE,102,4.0,0.0,30,0.00,,,0.00,578,WeatherHawk,2013-05-25 15:19:00,
2013-05-25 08:21:00,76.1,42.4,29.88,East,99,3.0,0.0,30,0.00,,,0.00,586,WeatherHawk,2013-05-25 15:21:00,
2013-05-25 08:22:00,76.3,42.6,29.88,ESE,105,2.0,0.0,30,0.00,,,0.00,582,WeatherHawk,2013-05-25 15:22:00,
2013-05-25 08:25:00,76.8,39.3,29.88,East,85,4.0,0.0,26,0.00,,,0.00,582,WeatherHawk,2013-05-25 15:25:00,
2013-05-25 08:27:00,77.2,40.6,29.88,ESE,102,2.0,6.0,27,0.00,,,0.00,616,WeatherHawk,2013-05-25 15:27:00,
2013-05-25 08:28:00,77.2,40.6,29.88,ENE,71,0.0,0.0,27,0.00,,,0.00,619,WeatherHawk,2013-05-25 15:28:00,
2013-05-25 08:29:00,77.5,41.8,29.88,East,101,3.0,0.0,28,0.00,,,0.00,630,WeatherHawk,2013-05-25 15:29:00,
2013-05-25 08:32:00,77.5,41.8,29.88,East,86,1.0,0.0,28,0.00,,,0.00,570,WeatherHawk,2013-05-25 15:32:00,
2013-05-25 08:33:00,77.9,42.1,29.88,ESE,112,0.0,0.0,28,0.00,,,0.00,622,WeatherHawk,2013-05-25 15:33:00,
2013-05-25 08:34:00,78.3,41.5,29.88,South,172,1.0,0.0,27,0.00,,,0.00,632,WeatherHawk,2013-05-25 15:34:00,
2013-05-25 08:37:00,78.8,40.0,29.88,SE,144,1.0,0.0,25,0.00,,,0.00,641,WeatherHawk,2013-05-25 15:37:00,
2013-05-25 08:40:00,79.0,34.5,29.88,North,350,1.0,0.0,20,0.00,,,0.00,652,WeatherHawk,2013-05-25 15:40:00,
2013-05-25 08:42:00,79.2,33.3,29.88,WNW,296,2.0,4.0,19,0.00,,,0.00,661,WeatherHawk,2013-05-25 15:42:00,
2013-05-25 08:45:00,79.2,34.6,29.88,NNW,329,3.0,4.0,20,0.00,,,0.00,672,WeatherHawk,2013-05-25 15:45:00,
2013-05-25 08:47:00,79.0,34.5,29.88,North,355,0.0,4.0,20,0.00,,,0.00,664,WeatherHawk,2013-05-25 15:47:00,
2013-05-25 08:49:00,79.0,27.4,29.89,North,349,6.0,0.0,15,0.00,,,0.00,685,WeatherHawk,2013-05-25 15:49:00,
2013-05-25 08:52:00,79.2,29.1,29.89,NW,310,6.0,0.0,16,0.00,,,0.00,685,WeatherHawk,2013-05-25 15:52:00,
2013-05-25 08:54:00,79.2,30.6,29.89,NW,320,4.0,0.0,17,0.00,,,0.00,704,WeatherHawk,2013-05-25 15:54:00,
2013-05-25 08:57:00,79.2,29.1,29.89,North,349,4.0,0.0,16,0.00,,,0.00,710,WeatherHawk,2013-05-25 15:57:00,
2013-05-25 08:59:00,79.3,29.2,29.89,North,1,4.0,0.0,16,0.00,,,0.00,718,WeatherHawk,2013-05-25 15:59:00,
2013-05-25 09:00:00,79.5,29.4,29.89,North,359,4.0,0.0,16,0.00,,,0.00,722,WeatherHawk,2013-05-25 16:00:00,
2013-05-25 09:02:00,79.5,29.4,29.89,North,359,4.0,0.0,16,0.00,,,0.00,722,WeatherHawk,2013-05-25 16:02:00,
2013-05-25 09:04:00,79.5,30.9,29.89,NNW,339,3.0,0.0,17,0.00,,,0.00,738,WeatherHawk,2013-05-25 16:04:00,
2013-05-25 09:06:00,79.7,31.0,29.89,NNW,334,2.0,0.0,17,0.00,,,0.00,740,WeatherHawk,2013-05-25 16:06:00,
2013-05-25 09:07:00,79.7,31.0,29.89,NNW,333,2.0,0.0,17,0.00,,,0.00,744,WeatherHawk,2013-05-25 16:07:00,
2013-05-25 09:09:00,80.1,31.3,29.89,NW,322,0.0,0.0,17,0.00,,,0.00,753,WeatherHawk,2013-05-25 16:09:00,
2013-05-25 09:10:00,80.4,30.1,29.89,WNW,300,1.0,0.0,16,0.00,,,0.00,758,WeatherHawk,2013-05-25 16:10:00,
2013-05-25 09:12:00,80.4,30.1,29.89,WNW,300,1.0,0.0,16,0.00,,,0.00,758,WeatherHawk,2013-05-25 16:12:00,
2013-05-25 09:14:00,80.8,28.8,29.89,NNE,21,4.0,0.0,15,0.00,,,0.00,769,WeatherHawk,2013-05-25 16:14:00,
2013-05-25 09:16:00,80.8,27.1,29.89,NNE,12,4.0,0.0,14,0.00,,,0.00,775,WeatherHawk,2013-05-25 16:16:00,
2013-05-25 09:17:00,80.8,27.1,29.89,North,10,4.0,0.0,14,0.00,,,0.00,778,WeatherHawk,2013-05-25 16:17:00,
2013-05-25 09:21:00,80.6,28.7,29.89,NNW,340,3.0,0.0,15,0.00,,,0.00,789,WeatherHawk,2013-05-25 16:21:00,
2013-05-25 09:22:00,80.6,28.7,29.89,NW,322,2.0,0.0,15,0.00,,,0.00,791,WeatherHawk,2013-05-25 16:22:00,
2013-05-25 09:25:00,80.8,30.4,29.89,NE,46,2.0,0.0,16,0.00,,,0.00,805,WeatherHawk,2013-05-25 16:25:00,
2013-05-25 09:29:00,81.5,27.7,29.89,NNW,342,5.0,0.0,14,0.00,,,0.00,818,WeatherHawk,2013-05-25 16:29:00,
2013-05-25 09:32:00,81.5,27.7,29.89,NNW,343,4.0,-999.0,14,0.00,,,0.00,818,WeatherHawk,2013-05-25 16:32:00,
2013-05-25 09:33:00,81.3,21.8,29.89,NW,313,4.0,0.0,11,0.00,,,0.00,827,WeatherHawk,2013-05-25 16:33:00,
2013-05-25 09:35:00,81.3,23.8,29.89,NNW,338,7.0,0.0,12,0.00,,,0.00,835,WeatherHawk,2013-05-25 16:35:00,
2013-05-25 09:37:00,81.3,21.8,29.89,NW,320,5.0,0.0,11,0.00,,,0.00,842,WeatherHawk,2013-05-25 16:37:00,
2013-05-25 09:41:00,81.5,24.0,29.89,NE,40,4.0,0.0,12,0.00,,,0.00,851,WeatherHawk,2013-05-25 16:41:00,
2013-05-25 09:42:00,81.5,25.9,29.89,North,0,4.0,7.0,13,0.00,,,0.00,856,WeatherHawk,2013-05-25 16:42:00,
2013-05-25 09:47:00,81.5,25.9,29.89,North,7,2.0,7.0,13,0.00,,,0.00,857,WeatherHawk,2013-05-25 16:47:00,
2013-05-25 09:48:00,82.2,26.5,29.89,NNW,329,5.0,0.0,13,0.00,,,0.00,876,WeatherHawk,2013-05-25 16:48:00,
2013-05-25 09:52:00,82.2,24.5,29.89,NNW,338,5.0,6.0,12,0.00,,,0.00,882,WeatherHawk,2013-05-25 16:52:00,
2013-05-25 09:56:00,82.2,26.5,29.89,NE,39,3.0,6.0,13,0.00,,,0.00,892,WeatherHawk,2013-05-25 16:56:00,
2013-05-25 09:57:00,82.2,26.5,29.89,NE,39,3.0,-999.0,13,0.00,,,0.00,892,WeatherHawk,2013-05-25 16:57:00,
2013-05-25 10:00:00,82.6,28.5,29.89,North,358,4.0,7.0,14,0.00,,,0.00,908,WeatherHawk,2013-05-25 17:00:00,
2013-05-25 10:03:00,82.4,28.4,29.89,NNE,18,4.0,7.0,14,0.00,,,0.00,912,WeatherHawk,2013-05-25 17:03:00,
2013-05-25 10:06:00,82.4,22.6,29.89,NW,325,5.0,7.0,11,0.00,,,0.00,923,WeatherHawk,2013-05-25 17:06:00,
2013-05-25 10:07:00,82.6,22.8,29.89,NW,326,4.0,7.0,11,0.00,,,0.00,926,WeatherHawk,2013-05-25 17:07:00,
2013-05-25 10:08:00,82.8,22.9,29.89,NW,315,3.0,0.0,11,0.00,,,0.00,927,WeatherHawk,2013-05-25 17:08:00,
2013-05-25 10:11:00,82.9,25.1,29.89,ESE,117,2.0,0.0,12,0.00,,,0.00,942,WeatherHawk,2013-05-25 17:11:00,
2013-05-25 10:12:00,82.9,25.1,29.89,ESE,117,2.0,-999.0,12,0.00,,,0.00,942,WeatherHawk,2013-05-25 17:12:00,
2013-05-25 10:13:00,83.3,25.4,29.89,NNW,348,4.0,0.0,12,0.00,,,0.00,941,WeatherHawk,2013-05-25 17:13:00,
2013-05-25 10:16:00,83.7,27.6,29.89,NNW,337,3.0,0.0,13,0.00,,,0.00,950,WeatherHawk,2013-05-25 17:16:00,
2013-05-25 10:18:00,83.5,25.5,29.89,North,3,4.0,7.0,12,0.00,,,0.00,954,WeatherHawk,2013-05-25 17:18:00,
2013-05-25 10:23:00,83.8,23.7,29.89,ESE,103,2.0,5.0,11,0.00,,,0.00,970,WeatherHawk,2013-05-25 17:23:00,
2013-05-25 10:24:00,84.2,21.7,29.89,ESE,112,2.0,5.0,10,0.00,,,0.00,971,WeatherHawk,2013-05-25 17:24:00,
2013-05-25 10:26:00,84.6,19.5,29.89,SSW,192,2.0,5.0,9,0.00,,,0.00,977,WeatherHawk,2013-05-25 17:26:00,
2013-05-25 10:28:00,84.4,21.9,29.89,SW,219,2.0,5.0,10,0.00,,,0.00,979,WeatherHawk,2013-05-25 17:28:00,
2013-05-25 10:31:00,84.9,19.8,29.89,SW,217,3.0,0.0,9,0.00,,,0.00,984,WeatherHawk,2013-05-25 17:31:00,
2013-05-25 10:33:00,84.9,22.3,29.89,SW,225,3.0,0.0,10,0.00,,,0.00,989,WeatherHawk,2013-05-25 17:33:00,
2013-05-25 10:36:00,85.5,22.7,29.89,South,181,1.0,0.0,10,0.00,,,0.00,998,WeatherHawk,2013-05-25 17:36:00,
2013-05-25 10:38:00,85.5,22.7,29.89,South,181,1.0,-999.0,10,0.00,,,0.00,998,WeatherHawk,2013-05-25 17:38:00,
2013-05-25 10:40:00,85.3,24.8,29.89,East,80,3.0,4.0,11,0.00,,,0.00,1009,WeatherHawk,2013-05-25 17:40:00,
2013-05-25 10:45:00,85.3,24.8,29.89,SE,132,3.0,4.0,11,0.00,,,0.00,1013,WeatherHawk,2013-05-25 17:45:00,
2013-05-25 10:47:00,85.3,24.8,29.89,SE,128,3.0,4.0,11,0.00,,,0.00,1021,WeatherHawk,2013-05-25 17:47:00,
2013-05-25 10:48:00,85.3,24.8,29.89,SE,128,3.0,-999.0,11,0.00,,,0.00,1021,WeatherHawk,2013-05-25 17:48:00,
2013-05-25 10:52:00,84.7,24.4,29.89,SSE,161,4.0,5.0,11,0.00,,,0.00,1029,WeatherHawk,2013-05-25 17:52:00,
2013-05-25 10:53:00,84.6,24.3,29.89,SSW,193,2.0,5.0,11,0.00,,,0.00,1031,WeatherHawk,2013-05-25 17:53:00,
2013-05-25 10:58:00,85.5,27.0,29.88,WSW,253,3.0,5.0,12,0.00,,,0.00,1039,WeatherHawk,2013-05-25 17:58:00,
2013-05-25 11:03:00,86.0,27.5,29.88,SE,132,7.0,0.0,12,0.00,,,0.00,1048,WeatherHawk,2013-05-25 18:03:00,
2013-05-25 11:06:00,85.6,27.2,29.88,SE,145,5.0,0.0,12,0.00,,,0.00,1056,WeatherHawk,2013-05-25 18:06:00,
2013-05-25 11:07:00,85.8,27.3,29.88,East,87,4.0,0.0,12,0.00,,,0.00,1055,WeatherHawk,2013-05-25 18:07:00,
2013-05-25 11:08:00,85.8,27.3,29.88,East,87,4.0,0.0,12,0.00,,,0.00,1055,WeatherHawk,2013-05-25 18:08:00,
2013-05-25 11:11:00,84.9,28.6,29.88,East,97,4.0,0.0,13,0.00,,,0.00,1063,WeatherHawk,2013-05-25 18:11:00,
2013-05-25 11:12:00,84.9,28.6,29.88,East,79,4.0,0.0,13,0.00,,,0.00,1063,WeatherHawk,2013-05-25 18:12:00,
2013-05-25 11:13:00,84.9,28.6,29.88,East,79,4.0,0.0,13,0.00,,,0.00,1063,WeatherHawk,2013-05-25 18:13:00,
2013-05-25 11:15:00,84.7,28.4,29.88,SE,124,3.0,0.0,13,0.00,,,0.00,1068,WeatherHawk,2013-05-25 18:15:00,
2013-05-25 11:17:00,84.7,28.4,29.88,ESE,102,1.0,0.0,13,0.00,,,0.00,1065,WeatherHawk,2013-05-25 18:17:00,
2013-05-25 11:18:00,84.9,28.6,29.88,North,9,2.0,-999.0,13,0.00,,,0.00,1068,WeatherHawk,2013-05-25 18:18:00,
2013-05-25 11:19:00,85.1,28.7,29.88,ENE,77,5.0,0.0,13,0.00,,,0.00,1073,WeatherHawk,2013-05-25 18:19:00,
2013-05-25 11:23:00,84.9,28.6,29.88,ESE,108,2.0,0.0,13,0.00,,,0.00,1077,WeatherHawk,2013-05-25 18:23:00,
2013-05-25 11:24:00,85.5,29.0,29.88,NE,43,2.0,0.0,13,0.00,,,0.00,1083,WeatherHawk,2013-05-25 18:24:00,
2013-05-25 11:26:00,85.5,29.0,29.88,ESE,102,2.0,0.0,13,0.00,,,0.00,1085,WeatherHawk,2013-05-25 18:26:00,
2013-05-25 11:28:00,85.6,29.1,29.88,East,86,4.0,0.0,13,0.00,,,0.00,1087,WeatherHawk,2013-05-25 18:28:00,
2013-05-25 11:30:00,85.5,29.0,29.88,ESE,119,4.0,0.0,13,0.00,,,0.00,1089,WeatherHawk,2013-05-25 18:30:00,
2013-05-25 11:33:00,85.6,29.1,29.88,SE,129,8.0,0.0,13,0.00,,,0.00,1090,WeatherHawk,2013-05-25 18:33:00,
2013-05-25 11:38:00,86.7,28.0,29.88,ESE,119,11.0,0.0,12,0.00,,,0.00,1096,WeatherHawk,2013-05-25 18:38:00,
2013-05-25 11:39:00,86.0,27.5,29.88,South,171,4.0,0.0,12,0.00,,,0.00,1103,WeatherHawk,2013-05-25 18:39:00,
2013-05-25 11:43:00,86.2,27.6,29.88,East,101,6.0,11.0,12,0.00,,,0.00,1106,WeatherHawk,2013-05-25 18:43:00,
2013-05-25 11:48:00,86.2,27.6,29.88,SE,133,10.0,11.0,12,0.00,,,0.00,1109,WeatherHawk,2013-05-25 18:48:00,
2013-05-25 11:49:00,85.8,27.3,29.88,SSW,204,1.0,11.0,12,0.00,,,0.00,1110,WeatherHawk,2013-05-25 18:49:00,
2013-05-25 11:52:00,86.0,27.5,29.88,South,182,4.0,11.0,12,0.00,,,0.00,1109,WeatherHawk,2013-05-25 18:52:00,
2013-05-25 11:56:00,86.5,27.9,29.88,SE,140,10.0,11.0,12,0.00,,,0.00,1119,WeatherHawk,2013-05-25 18:56:00,
2013-05-25 12:02:00,86.5,27.9,29.88,SSE,153,4.0,0.0,12,0.00,,,0.00,1123,WeatherHawk,2013-05-25 19:02:00,
2013-05-25 12:03:00,86.5,27.9,29.88,SSE,153,4.0,0.0,12,0.00,,,0.00,1123,WeatherHawk,2013-05-25 19:03:00,
2013-05-25 12:08:00,87.3,26.3,29.88,ESE,120,4.0,0.0,11,0.00,,,0.00,1129,WeatherHawk,2013-05-25 19:08:00,
2013-05-25 12:11:00,87.8,26.7,29.88,ESE,119,7.0,8.0,11,0.00,,,0.00,1126,WeatherHawk,2013-05-25 19:11:00,
2013-05-25 12:12:00,87.6,26.6,29.88,ESE,116,6.0,8.0,11,0.00,,,0.00,1127,WeatherHawk,2013-05-25 19:12:00,
2013-05-25 12:13:00,87.6,26.6,29.88,ESE,116,6.0,8.0,11,0.00,,,0.00,1127,WeatherHawk,2013-05-25 19:13:00,
2013-05-25 12:14:00,87.8,26.7,29.88,ESE,111,10.0,10.0,11,0.00,,,0.00,1127,WeatherHawk,2013-05-25 19:14:00,
2013-05-25 12:15:00,87.6,26.6,29.88,East,81,5.0,8.0,11,0.00,,,0.00,1119,WeatherHawk,2013-05-25 19:15:00,
2013-05-25 12:18:00,87.4,26.5,29.88,SE,140,6.0,-999.0,11,0.00,,,0.00,1130,WeatherHawk,2013-05-25 19:18:00,
2013-05-25 12:22:00,88.3,27.2,29.88,SW,226,5.0,0.0,11,0.00,,,0.00,1128,WeatherHawk,2013-05-25 19:22:00,
2013-05-25 12:23:00,88.3,27.2,29.88,SW,226,5.0,-999.0,11,0.00,,,0.00,1128,WeatherHawk,2013-05-25 19:23:00,
2013-05-25 12:26:00,89.1,25.4,29.87,SSW,209,10.0,0.0,10,0.00,,,0.00,1132,WeatherHawk,2013-05-25 19:26:00,
2013-05-25 12:28:00,89.2,25.5,29.87,South,187,9.0,0.0,10,0.00,,,0.00,1134,WeatherHawk,2013-05-25 19:28:00,
2013-05-25 12:31:00,89.2,25.5,29.87,SSW,213,8.0,0.0,10,0.00,,,0.00,1135,WeatherHawk,2013-05-25 19:31:00,
2013-05-25 12:33:00,88.7,25.1,29.87,SW,222,4.0,12.0,10,0.00,,,0.00,1136,WeatherHawk,2013-05-25 19:33:00,
2013-05-25 12:36:00,88.2,24.7,29.87,South,171,3.0,12.0,10,0.00,,,0.00,1132,WeatherHawk,2013-05-25 19:36:00,
2013-05-25 12:38:00,88.3,24.9,29.87,SE,134,9.0,12.0,10,0.00,,,0.00,1134,WeatherHawk,2013-05-25 19:38:00,
2013-05-25 12:40:00,88.5,25.0,29.87,ESE,113,5.0,12.0,10,0.00,,,0.00,1132,WeatherHawk,2013-05-25 19:40:00,
2013-05-25 12:43:00,88.3,27.2,29.87,East,86,6.0,12.0,11,0.00,,,0.00,1135,WeatherHawk,2013-05-25 19:43:00,
2013-05-25 12:44:00,88.3,27.2,29.87,East,91,5.0,12.0,11,0.00,,,0.00,1138,WeatherHawk,2013-05-25 19:44:00,
2013-05-25 12:46:00,88.3,27.2,29.86,NE,44,9.0,12.0,11,0.00,,,0.00,1133,WeatherHawk,2013-05-25 19:46:00,
2013-05-25 12:49:00,89.4,25.7,29.86,SSW,195,5.0,0.0,10,0.00,,,0.00,1134,WeatherHawk,2013-05-25 19:49:00,
2013-05-25 12:52:00,90.1,23.7,29.86,SSW,203,7.0,11.0,9,0.00,,,0.00,1133,WeatherHawk,2013-05-25 19:52:00,
2013-05-25 12:54:00,89.8,23.4,29.86,SW,227,7.0,11.0,9,0.00,,,0.00,1131,WeatherHawk,2013-05-25 19:54:00,
2013-05-25 12:55:00,89.8,23.4,29.86,WSW,246,6.0,11.0,9,0.00,,,0.00,1132,WeatherHawk,2013-05-25 19:55:00,
2013-05-25 12:57:00,89.8,23.4,29.86,SW,221,3.0,11.0,9,0.00,,,0.00,1131,WeatherHawk,2013-05-25 19:57:00,
2013-05-25 13:00:00,90.5,24.0,29.86,West,263,4.0,0.0,9,0.00,,,0.00,1125,WeatherHawk,2013-05-25 20:00:00,
2013-05-25 13:02:00,90.5,24.0,29.86,West,263,4.0,0.0,9,0.00,,,0.00,1125,WeatherHawk,2013-05-25 20:02:00,
2013-05-25 13:03:00,90.7,24.1,29.86,ESE,105,5.0,0.0,9,0.00,,,0.00,1123,WeatherHawk,2013-05-25 20:03:00,
2013-05-25 13:07:00,90.5,24.0,29.86,SE,140,5.0,0.0,9,0.00,,,0.00,1126,WeatherHawk,2013-05-25 20:07:00,
2013-05-25 13:08:00,90.3,23.8,29.86,SE,126,7.0,0.0,9,0.00,,,0.00,1124,WeatherHawk,2013-05-25 20:08:00,
2013-05-25 13:09:00,90.3,23.8,29.86,SE,127,9.0,0.0,9,0.00,,,0.00,1118,WeatherHawk,2013-05-25 20:09:00,
2013-05-25 13:12:00,90.1,23.7,29.86,East,99,7.0,-999.0,9,0.00,,,0.00,1122,WeatherHawk,2013-05-25 20:12:00,
2013-05-25 13:13:00,90.0,26.1,29.86,ESE,121,6.0,0.0,10,0.00,,,0.00,1121,WeatherHawk,2013-05-25 20:13:00,
2013-05-25 13:15:00,89.8,25.9,29.86,SSE,152,4.0,0.0,10,0.00,,,0.00,1120,WeatherHawk,2013-05-25 20:15:00,
2013-05-25 13:16:00,89.6,25.8,29.86,ESE,109,3.0,0.0,10,0.00,,,0.00,1117,WeatherHawk,2013-05-25 20:16:00,
2013-05-25 13:17:00,89.6,25.8,29.86,ESE,109,3.0,-999.0,10,0.00,,,0.00,1117,WeatherHawk,2013-05-25 20:17:00,
2013-05-25 13:22:00,90.3,23.8,29.86,SW,220,3.0,11.0,9,0.00,,,0.00,1117,WeatherHawk,2013-05-25 20:22:00,
2013-05-25 13:24:00,90.9,24.2,29.85,WSW,243,2.0,11.0,9,0.00,,,0.00,1113,WeatherHawk,2013-05-25 20:24:00,
2013-05-25 13:26:00,91.4,24.6,29.85,SE,129,9.0,11.0,9,0.00,,,0.00,1112,WeatherHawk,2013-05-25 20:26:00,
2013-05-25 13:27:00,91.6,24.8,29.85,South,170,10.0,11.0,9,0.00,,,0.00,1110,WeatherHawk,2013-05-25 20:27:00,
2013-05-25 13:31:00,91.6,22.0,29.85,SW,221,5.0,0.0,8,0.00,,,0.00,1111,WeatherHawk,2013-05-25 20:31:00,
2013-05-25 13:32:00,91.4,21.8,29.85,South,190,5.0,0.0,8,0.00,,,0.00,1111,WeatherHawk,2013-05-25 20:32:00,
2013-05-25 13:37:00,92.1,22.4,29.85,NNW,346,2.0,0.0,8,0.00,,,0.00,1104,WeatherHawk,2013-05-25 20:37:00,
2013-05-25 13:41:00,92.7,22.8,29.85,South,173,10.0,0.0,8,0.00,,,0.00,1090,WeatherHawk,2013-05-25 20:41:00,
2013-05-25 13:42:00,92.7,22.8,29.85,South,173,10.0,0.0,8,0.00,,,0.00,1090,WeatherHawk,2013-05-25 20:42:00,
2013-05-25 13:43:00,92.3,22.5,29.85,SSE,168,5.0,0.0,8,0.00,,,0.00,1087,WeatherHawk,2013-05-25 20:43:00,
2013-05-25 13:45:00,92.1,22.4,29.85,South,189,9.0,0.0,8,0.00,,,0.00,1057,WeatherHawk,2013-05-25 20:45:00,
2013-05-25 13:46:00,92.3,22.5,29.85,South,191,9.0,0.0,8,0.00,,,0.00,1083,WeatherHawk,2013-05-25 20:46:00,
2013-05-25 13:47:00,92.5,22.6,29.84,SW,217,8.0,0.0,8,0.00,,,0.00,1067,WeatherHawk,2013-05-25 20:47:00,
2013-05-25 13:50:00,91.9,22.2,29.84,South,174,9.0,0.0,8,0.00,,,0.00,1070,WeatherHawk,2013-05-25 20:50:00,
2013-05-25 13:52:00,91.9,22.2,29.84,SW,220,11.0,16.0,8,0.00,,,0.00,1082,WeatherHawk,2013-05-25 20:52:00,
2013-05-25 13:54:00,92.5,22.6,29.84,South,187,9.0,16.0,8,0.00,,,0.00,1079,WeatherHawk,2013-05-25 20:54:00,
2013-05-25 13:55:00,92.3,22.5,29.84,South,180,8.0,16.0,8,0.00,,,0.00,1075,WeatherHawk,2013-05-25 20:55:00,
2013-05-25 13:57:00,91.8,22.1,29.84,South,175,5.0,16.0,8,0.00,,,0.00,1073,WeatherHawk,2013-05-25 20:57:00,
2013-05-25 14:01:00,91.9,22.2,29.84,South,171,9.0,0.0,8,0.00,,,0.00,1066,WeatherHawk,2013-05-25 21:01:00,
2013-05-25 14:02:00,91.9,25.0,29.84,SE,133,8.0,-999.0,9,0.00,,,0.00,1062,WeatherHawk,2013-05-25 21:02:00,
2013-05-25 14:07:00,92.5,25.4,29.84,SSE,154,10.0,0.0,9,0.00,,,0.00,1058,WeatherHawk,2013-05-25 21:07:00,
2013-05-25 14:10:00,92.5,25.4,29.84,SSE,149,13.0,13.0,9,0.00,,,0.00,1049,WeatherHawk,2013-05-25 21:10:00,
2013-05-25 14:12:00,92.5,25.4,29.84,SSE,149,13.0,13.0,9,0.00,,,0.00,1049,WeatherHawk,2013-05-25 21:12:00,
2013-05-25 14:16:00,92.8,25.7,29.84,South,182,3.0,13.0,9,0.00,,,0.00,1040,WeatherHawk,2013-05-25 21:16:00,
2013-05-25 14:17:00,93.0,25.8,29.84,SW,228,4.0,13.0,9,0.00,,,0.00,1039,WeatherHawk,2013-05-25 21:17:00,
2013-05-25 14:18:00,93.9,23.7,29.84,WSW,250,7.0,0.0,8,0.00,,,0.00,1037,WeatherHawk,2013-05-25 21:18:00,
2013-05-25 14:22:00,93.4,26.1,29.83,South,174,4.0,0.0,9,0.00,,,0.00,1024,WeatherHawk,2013-05-25 21:22:00,
2013-05-25 14:23:00,93.2,26.0,29.83,SW,214,1.0,0.0,9,0.00,,,0.00,1023,WeatherHawk,2013-05-25 21:23:00,
2013-05-25 14:27:00,93.7,26.4,29.83,SE,140,9.0,0.0,9,0.00,,,0.00,1010,WeatherHawk,2013-05-25 21:27:00,
2013-05-25 14:28:00,94.1,26.6,29.83,SE,137,6.0,0.0,9,0.00,,,0.00,1014,WeatherHawk,2013-05-25 21:28:00,
2013-05-25 14:29:00,93.7,26.4,29.83,SE,128,8.0,0.0,9,0.00,,,0.00,1010,WeatherHawk,2013-05-25 21:29:00,
2013-05-25 14:32:00,93.4,26.1,29.83,SE,142,6.0,0.0,9,0.00,,,0.00,1007,WeatherHawk,2013-05-25 21:32:00,
2013-05-25 14:33:00,93.7,26.4,29.83,South,169,11.0,0.0,9,0.00,,,0.00,1000,WeatherHawk,2013-05-25 21:33:00,
2013-05-25 14:34:00,93.2,26.0,29.83,SSE,158,6.0,0.0,9,0.00,,,0.00,994,WeatherHawk,2013-05-25 21:34:00,
2013-05-25 14:37:00,93.4,26.1,29.83,SSW,206,3.0,0.0,9,0.00,,,0.00,992,WeatherHawk,2013-05-25 21:37:00,
2013-05-25 14:38:00,93.4,28.7,29.83,SSE,164,5.0,0.0,10,0.00,,,0.00,983,WeatherHawk,2013-05-25 21:38:00,
2013-05-25 14:40:00,94.3,26.8,29.82,South,189,13.0,0.0,9,0.00,,,0.00,982,WeatherHawk,2013-05-25 21:40:00,
2013-05-25 14:42:00,94.1,29.2,29.83,SSE,164,8.0,0.0,10,0.00,,,0.00,974,WeatherHawk,2013-05-25 21:42:00,
2013-05-25 14:44:00,93.6,28.8,29.82,ESE,122,8.0,0.0,10,0.00,,,0.00,970,WeatherHawk,2013-05-25 21:44:00,
2013-05-25 14:47:00,93.4,28.7,29.82,South,176,6.0,0.0,10,0.00,,,0.00,965,WeatherHawk,2013-05-25 21:47:00,
2013-05-25 14:48:00,93.9,29.1,29.82,South,179,6.0,0.0,10,0.00,,,0.00,961,WeatherHawk,2013-05-25 21:48:00,
2013-05-25 14:49:00,93.9,26.5,29.82,SE,146,5.0,0.0,9,0.00,,,0.00,962,WeatherHawk,2013-05-25 21:49:00,
2013-05-25 14:52:00,94.6,27.0,29.82,ESE,111,10.0,0.0,9,0.00,,,0.00,957,WeatherHawk,2013-05-25 21:52:00,
2013-05-25 14:54:00,93.6,26.2,29.82,ESE,117,3.0,0.0,9,0.00,,,0.00,946,WeatherHawk,2013-05-25 21:54:00,
2013-05-25 14:56:00,93.4,28.7,29.82,SSE,153,5.0,0.0,10,0.00,,,0.00,944,WeatherHawk,2013-05-25 21:56:00,
2013-05-25 14:57:00,93.7,28.9,29.82,SSW,193,6.0,0.0,10,0.00,,,0.00,939,WeatherHawk,2013-05-25 21:57:00,
2013-05-25 14:59:00,94.5,29.5,29.82,WSW,244,5.0,0.0,10,0.00,,,0.00,931,WeatherHawk,2013-05-25 21:59:00,
2013-05-25 15:02:00,94.8,29.7,29.82,SSW,195,3.0,0.0,10,0.00,,,0.00,929,WeatherHawk,2013-05-25 22:02:00,
2013-05-25 15:03:00,95.7,27.8,29.81,South,170,13.0,0.0,9,0.00,,,0.00,926,WeatherHawk,2013-05-25 22:03:00,
2013-05-25 15:05:00,95.0,29.9,29.81,SE,125,6.0,0.0,10,0.00,,,0.00,918,WeatherHawk,2013-05-25 22:05:00,
2013-05-25 15:07:00,94.8,27.2,29.81,SE,140,11.0,-999.0,9,0.00,,,0.00,917,WeatherHawk,2013-05-25 22:07:00,
2013-05-25 15:08:00,94.8,29.7,29.81,SE,139,9.0,0.0,10,0.00,,,0.00,911,WeatherHawk,2013-05-25 22:08:00,
2013-05-25 15:09:00,94.5,29.5,29.81,ESE,123,8.0,0.0,10,0.00,,,0.00,907,WeatherHawk,2013-05-25 22:09:00,
2013-05-25 15:12:00,94.3,29.3,29.81,ESE,122,8.0,0.0,10,0.00,,,0.00,904,WeatherHawk,2013-05-25 22:12:00,
2013-05-25 15:14:00,94.6,29.6,29.81,South,189,10.0,0.0,10,0.00,,,0.00,895,WeatherHawk,2013-05-25 22:14:00,
2013-05-25 15:17:00,94.3,29.3,29.81,SSE,155,7.0,0.0,10,0.00,,,0.00,892,WeatherHawk,2013-05-25 22:17:00,
2013-05-25 15:18:00,94.5,29.5,29.81,SW,236,4.0,0.0,10,0.00,,,0.00,883,WeatherHawk,2013-05-25 22:18:00,
2013-05-25 15:20:00,94.8,29.7,29.81,South,179,6.0,0.0,10,0.00,,,0.00,877,WeatherHawk,2013-05-25 22:20:00,
2013-05-25 15:22:00,95.0,29.9,29.80,South,173,10.0,0.0,10,0.00,,,0.00,873,WeatherHawk,2013-05-25 22:22:00,
2013-05-25 15:24:00,94.8,29.7,29.80,SSW,192,5.0,0.0,10,0.00,,,0.00,866,WeatherHawk,2013-05-25 22:24:00,
2013-05-25 15:26:00,95.5,30.3,29.80,South,184,9.0,0.0,10,0.00,,,0.00,860,WeatherHawk,2013-05-25 22:26:00,
2013-05-25 15:27:00,95.5,30.3,29.80,South,184,9.0,-999.0,10,0.00,,,0.00,860,WeatherHawk,2013-05-25 22:27:00,
2013-05-25 15:28:00,95.4,30.1,29.80,SSE,163,11.0,0.0,10,0.00,,,0.00,853,WeatherHawk,2013-05-25 22:28:00,
2013-05-25 15:31:00,94.3,29.3,29.80,SSE,147,4.0,16.0,10,0.00,,,0.00,840,WeatherHawk,2013-05-25 22:31:00,
2013-05-25 15:32:00,94.3,29.3,29.80,SSE,147,4.0,16.0,10,0.00,,,0.00,840,WeatherHawk,2013-05-25 22:32:00,
2013-05-25 15:37:00,95.5,30.3,29.80,SSE,165,13.0,-999.0,10,0.00,,,0.00,819,WeatherHawk,2013-05-25 22:37:00,
2013-05-25 15:38:00,95.0,29.9,29.80,SE,129,7.0,0.0,10,0.00,,,0.00,820,WeatherHawk,2013-05-25 22:38:00,
2013-05-25 15:40:00,94.8,29.7,29.80,SSE,162,8.0,0.0,10,0.00,,,0.00,815,WeatherHawk,2013-05-25 22:40:00,
2013-05-25 15:42:00,94.6,29.6,29.80,SE,125,9.0,0.0,10,0.00,,,0.00,804,WeatherHawk,2013-05-25 22:42:00,
2013-05-25 15:43:00,94.8,29.7,29.79,SSE,153,9.0,0.0,10,0.00,,,0.00,804,WeatherHawk,2013-05-25 22:43:00,
2013-05-25 15:46:00,94.8,29.7,29.79,SSE,167,14.0,0.0,10,0.00,,,0.00,802,WeatherHawk,2013-05-25 22:46:00,
2013-05-25 15:47:00,94.8,29.7,29.79,SE,139,12.0,0.0,10,0.00,,,0.00,796,WeatherHawk,2013-05-25 22:47:00,
2013-05-25 15:50:00,94.5,29.5,29.79,SE,145,6.0,14.0,10,0.00,,,0.00,789,WeatherHawk,2013-05-25 22:50:00,
2013-05-25 15:52:00,95.4,30.1,29.79,SSE,154,10.0,-999.0,10,0.00,,,0.00,779,WeatherHawk,2013-05-25 22:52:00,
2013-05-25 15:53:00,95.5,30.3,29.79,SE,135,10.0,14.0,10,0.00,,,0.00,779,WeatherHawk,2013-05-25 22:53:00,
2013-05-25 15:55:00,95.4,30.1,29.79,SSE,161,10.0,14.0,10,0.00,,,0.00,772,WeatherHawk,2013-05-25 22:55:00,
2013-05-25 15:56:00,95.2,30.0,29.79,SSE,166,11.0,14.0,10,0.00,,,0.00,768,WeatherHawk,2013-05-25 22:56:00,
2013-05-25 15:57:00,95.2,30.0,29.79,SSE,166,11.0,-999.0,10,0.00,,,0.00,768,WeatherHawk,2013-05-25 22:57:00,
2013-05-25 16:02:00,95.2,30.0,29.79,South,180,11.0,0.0,10,0.00,,,0.00,754,WeatherHawk,2013-05-25 23:02:00,
2013-05-25 16:03:00,95.2,30.0,29.79,SSE,154,6.0,0.0,10,0.00,,,0.00,754,WeatherHawk,2013-05-25 23:03:00,
2013-05-25 16:05:00,95.5,30.3,29.79,SSE,157,10.0,0.0,10,0.00,,,0.00,713,WeatherHawk,2013-05-25 23:05:00,
2013-05-25 16:07:00,95.2,30.0,29.78,SE,138,4.0,0.0,10,0.00,,,0.00,681,WeatherHawk,2013-05-25 23:07:00,
2013-05-25 16:09:00,94.8,29.7,29.78,SE,141,7.0,0.0,10,0.00,,,0.00,709,WeatherHawk,2013-05-25 23:09:00,
2013-05-25 16:10:00,94.8,29.7,29.78,SSE,164,6.0,0.0,10,0.00,,,0.00,696,WeatherHawk,2013-05-25 23:10:00,
2013-05-25 16:12:00,95.2,30.0,29.78,South,191,7.0,0.0,10,0.00,,,0.00,698,WeatherHawk,2013-05-25 23:12:00,
2013-05-25 16:15:00,95.7,30.4,29.78,South,176,8.0,0.0,10,0.00,,,0.00,651,WeatherHawk,2013-05-25 23:15:00,
2013-05-25 16:17:00,95.9,28.0,29.78,SSW,213,8.0,0.0,9,0.00,,,0.00,653,WeatherHawk,2013-05-25 23:17:00,
2013-05-25 16:19:00,95.9,28.0,29.78,SW,219,6.0,0.0,9,0.00,,,0.00,689,WeatherHawk,2013-05-25 23:19:00,
2013-05-25 16:23:00,95.9,28.0,29.78,WSW,254,5.0,0.0,9,0.00,,,0.00,689,WeatherHawk,2013-05-25 23:23:00,
2013-05-25 16:24:00,96.3,28.2,29.78,SW,231,9.0,0.0,9,0.00,,,0.00,612,WeatherHawk,2013-05-25 23:24:00,
2013-05-25 16:25:00,96.3,28.2,29.78,SW,233,9.0,0.0,9,0.00,,,0.00,706,WeatherHawk,2013-05-25 23:25:00,
2013-05-25 16:27:00,96.3,28.2,29.78,SW,233,9.0,-999.0,9,0.00,,,0.00,706,WeatherHawk,2013-05-25 23:27:00,
2013-05-25 16:30:00,96.4,28.4,29.78,South,190,9.0,0.0,9,0.00,,,0.00,668,WeatherHawk,2013-05-25 23:30:00,
2013-05-25 16:32:00,95.9,28.0,29.78,SSW,193,10.0,0.0,9,0.00,,,0.00,656,WeatherHawk,2013-05-25 23:32:00,
2013-05-25 16:36:00,95.4,27.6,29.78,SW,214,5.0,0.0,9,0.00,,,0.00,640,WeatherHawk,2013-05-25 23:36:00,
2013-05-25 16:37:00,95.2,27.4,29.78,SSW,195,4.0,0.0,9,0.00,,,0.00,636,WeatherHawk,2013-05-25 23:37:00,
2013-05-25 16:38:00,95.5,30.3,29.78,SSE,151,7.0,0.0,10,0.00,,,0.00,631,WeatherHawk,2013-05-25 23:38:00,
2013-05-25 16:42:00,95.9,28.0,29.77,SE,142,11.0,0.0,9,0.00,,,0.00,622,WeatherHawk,2013-05-25 23:42:00,
2013-05-25 16:45:00,95.4,27.6,29.77,ESE,102,4.0,13.0,9,0.00,,,0.00,606,WeatherHawk,2013-05-25 23:45:00,
2013-05-25 16:47:00,95.4,27.6,29.77,SSE,148,4.0,-999.0,9,0.00,,,0.00,605,WeatherHawk,2013-05-25 23:47:00,
2013-05-25 16:49:00,95.2,27.4,29.77,SSE,167,6.0,0.0,9,0.00,,,0.00,591,WeatherHawk,2013-05-25 23:49:00,
2013-05-25 16:52:00,95.4,27.6,29.77,South,189,7.0,0.0,9,0.00,,,0.00,576,WeatherHawk,2013-05-25 23:52:00,
2013-05-25 16:53:00,95.4,27.6,29.77,South,181,8.0,0.0,9,0.00,,,0.00,571,WeatherHawk,2013-05-25 23:53:00,
2013-05-25 16:55:00,95.5,27.7,29.77,South,187,7.0,0.0,9,0.00,,,0.00,563,WeatherHawk,2013-05-25 23:55:00,
2013-05-25 16:57:00,95.4,27.6,29.77,South,179,8.0,0.0,9,0.00,,,0.00,553,WeatherHawk,2013-05-25 23:57:00,
2013-05-25 16:59:00,95.2,27.4,29.77,South,189,3.0,0.0,9,0.00,,,0.00,547,WeatherHawk,2013-05-25 23:59:00,
2013-05-25 17:00:00,95.2,30.0,29.77,South,177,7.0,0.0,10,0.00,,,0.00,542,WeatherHawk,2013-05-26 00:00:00,
2013-05-25 17:01:00,95.2,30.0,29.77,South,183,2.0,0.0,10,0.00,,,0.00,539,WeatherHawk,2013-05-26 00:01:00,
2013-05-25 17:02:00,95.4,27.6,29.77,South,169,2.0,0.0,9,0.00,,,0.00,535,WeatherHawk,2013-05-26 00:02:00,
2013-05-25 17:04:00,95.9,28.0,29.76,SSE,157,13.0,0.0,9,0.00,,,0.00,525,WeatherHawk,2013-05-26 00:04:00,
2013-05-25 17:06:00,95.5,27.7,29.76,SE,146,9.0,0.0,9,0.00,,,0.00,526,WeatherHawk,2013-05-26 00:06:00,
2013-05-25 17:07:00,95.5,27.7,29.76,SE,146,9.0,0.0,9,0.00,,,0.00,526,WeatherHawk,2013-05-26 00:07:00,
2013-05-25 17:10:00,96.1,28.1,29.76,SW,215,13.0,0.0,9,0.00,,,0.00,507,WeatherHawk,2013-05-26 00:10:00,
2013-05-25 17:12:00,95.7,27.8,29.77,SW,215,6.0,13.0,9,0.00,,,0.00,500,WeatherHawk,2013-05-26 00:12:00,
2013-05-25 17:13:00,95.7,27.8,29.77,SSW,204,9.0,13.0,9,0.00,,,0.00,494,WeatherHawk,2013-05-26 00:13:00,
2013-05-25 17:15:00,95.7,27.8,29.76,SW,230,6.0,13.0,9,0.00,,,0.00,483,WeatherHawk,2013-05-26 00:15:00,
2013-05-25 17:16:00,95.7,27.8,29.76,SSW,207,7.0,13.0,9,0.00,,,0.00,478,WeatherHawk,2013-05-26 00:16:00,
2013-05-25 17:18:00,95.5,27.7,29.76,South,175,6.0,13.0,9,0.00,,,0.00,473,WeatherHawk,2013-05-26 00:18:00,
2013-05-25 17:20:00,95.4,30.1,29.76,South,179,6.0,13.0,10,0.00,,,0.00,463,WeatherHawk,2013-05-26 00:20:00,
2013-05-25 17:21:00,95.4,30.1,29.76,SSE,162,8.0,13.0,10,0.00,,,0.00,460,WeatherHawk,2013-05-26 00:21:00,
2013-05-25 17:23:00,95.4,30.1,29.76,South,179,6.0,13.0,10,0.00,,,0.00,453,WeatherHawk,2013-05-26 00:23:00,
2013-05-25 17:26:00,95.2,30.0,29.76,SSE,159,1.0,13.0,10,0.00,,,0.00,439,WeatherHawk,2013-05-26 00:26:00,
2013-05-25 17:28:00,95.2,30.0,29.76,SSE,159,1.0,13.0,10,0.00,,,0.00,439,WeatherHawk,2013-05-26 00:28:00,
2013-05-25 17:33:00,96.1,30.7,29.76,SSE,157,6.0,12.0,10,0.00,,,0.00,420,WeatherHawk,2013-05-26 00:33:00,
2013-05-25 17:35:00,95.5,30.3,29.76,SSE,159,7.0,12.0,10,0.00,,,0.00,364,WeatherHawk,2013-05-26 00:35:00,
2013-05-25 17:37:00,95.7,30.4,29.76,SE,140,9.0,12.0,10,0.00,,,0.00,384,WeatherHawk,2013-05-26 00:37:00,
2013-05-25 17:38:00,95.7,30.4,29.76,SE,140,9.0,12.0,10,0.00,,,0.00,384,WeatherHawk,2013-05-26 00:38:00,
2013-05-25 17:42:00,95.5,30.3,29.76,SSE,147,6.0,11.0,10,0.00,,,0.00,347,WeatherHawk,2013-05-26 00:42:00,
2013-05-25 17:43:00,95.5,30.3,29.76,SSE,147,6.0,11.0,10,0.00,,,0.00,347,WeatherHawk,2013-05-26 00:43:00,
2013-05-25 17:45:00,95.4,27.6,29.76,South,181,5.0,11.0,9,0.00,,,0.00,349,WeatherHawk,2013-05-26 00:45:00,
2013-05-25 17:47:00,95.5,30.3,29.76,SE,140,6.0,11.0,10,0.00,,,0.00,330,WeatherHawk,2013-05-26 00:47:00,
2013-05-25 17:48:00,95.5,30.3,29.76,SSE,158,5.0,-999.0,10,0.00,,,0.00,338,WeatherHawk,2013-05-26 00:48:00,
2013-05-25 17:52:00,95.7,27.8,29.76,SSW,196,4.0,0.0,9,0.00,,,0.00,308,WeatherHawk,2013-05-26 00:52:00,
2013-05-25 17:53:00,95.7,27.8,29.76,SSW,196,4.0,-999.0,9,0.00,,,0.00,308,WeatherHawk,2013-05-26 00:53:00,
2013-05-25 17:54:00,95.9,28.0,29.76,NNW,333,1.0,0.0,9,0.00,,,0.00,182,WeatherHawk,2013-05-26 00:54:00,
2013-05-25 17:58:00,95.9,28.0,29.76,WSW,246,1.0,0.0,9,0.00,,,0.00,152,WeatherHawk,2013-05-26 00:58:00,
2013-05-25 17:59:00,95.9,30.6,29.76,South,186,6.0,0.0,10,0.00,,,0.00,233,WeatherHawk,2013-05-26 00:59:00,
2013-05-25 18:03:00,96.1,30.7,29.76,South,182,5.0,6.0,10,0.00,,,0.00,270,WeatherHawk,2013-05-26 01:03:00,
2013-05-25 18:07:00,95.0,32.2,29.75,SSE,168,9.0,9.0,11,0.00,,,0.00,231,WeatherHawk,2013-05-26 01:07:00,
2013-05-25 18:08:00,95.0,32.2,29.75,SSE,168,9.0,9.0,11,0.00,,,0.00,231,WeatherHawk,2013-05-26 01:08:00,
2013-05-25 18:12:00,94.8,29.7,29.75,SSE,162,9.0,0.0,10,0.00,,,0.00,206,WeatherHawk,2013-05-26 01:12:00,
2013-05-25 18:13:00,94.8,29.7,29.75,SSE,162,9.0,-999.0,10,0.00,,,0.00,206,WeatherHawk,2013-05-26 01:13:00,
2013-05-25 18:15:00,94.8,29.7,29.76,SSE,162,7.0,0.0,10,0.00,,,0.00,194,WeatherHawk,2013-05-26 01:15:00,
2013-05-25 18:16:00,94.6,34.1,29.75,SE,136,10.0,0.0,12,0.00,,,0.00,200,WeatherHawk,2013-05-26 01:16:00,
2013-05-25 18:18:00,94.6,34.1,29.75,SE,141,8.0,0.0,12,0.00,,,0.00,206,WeatherHawk,2013-05-26 01:18:00,
2013-05-25 18:19:00,94.5,34.0,29.76,ESE,114,7.0,0.0,12,0.00,,,0.00,187,WeatherHawk,2013-05-26 01:19:00,
2013-05-25 18:23:00,94.5,34.0,29.75,ESE,122,8.0,-999.0,12,0.00,,,0.00,138,WeatherHawk,2013-05-26 01:23:00,
2013-05-25 18:28:00,94.1,35.7,29.76,ESE,110,5.0,-999.0,13,0.00,,,0.00,201,WeatherHawk,2013-05-26 01:28:00,
2013-05-25 18:30:00,94.6,29.6,29.75,South,177,8.0,0.0,10,0.00,,,0.00,197,WeatherHawk,2013-05-26 01:30:00,
2013-05-25 18:31:00,94.8,29.7,29.75,South,183,6.0,9.0,10,0.00,,,0.00,183,WeatherHawk,2013-05-26 01:31:00,
2013-05-25 18:33:00,94.8,29.7,29.75,SE,136,5.0,9.0,10,0.00,,,0.00,145,WeatherHawk,2013-05-26 01:33:00,
2013-05-25 18:35:00,94.6,32.0,29.76,SE,146,5.0,9.0,11,0.00,,,0.00,144,WeatherHawk,2013-05-26 01:35:00,
2013-05-25 18:40:00,93.7,35.4,29.76,SE,132,6.0,0.0,13,0.00,,,0.00,158,WeatherHawk,2013-05-26 01:40:00,
2013-05-25 18:41:00,93.6,37.2,29.76,SE,126,6.0,0.0,14,0.00,,,0.00,158,WeatherHawk,2013-05-26 01:41:00,
2013-05-25 18:42:00,93.6,35.3,29.76,ESE,115,5.0,0.0,13,0.00,,,0.00,158,WeatherHawk,2013-05-26 01:42:00,
2013-05-25 18:43:00,93.6,35.3,29.76,ESE,115,5.0,-999.0,13,0.00,,,0.00,158,WeatherHawk,2013-05-26 01:43:00,
2013-05-25 18:47:00,93.6,37.2,29.76,ESE,116,4.0,0.0,14,0.00,,,0.00,85,WeatherHawk,2013-05-26 01:47:00,
2013-05-25 18:48:00,93.6,37.2,29.76,ESE,116,4.0,-999.0,14,0.00,,,0.00,85,WeatherHawk,2013-05-26 01:48:00,
2013-05-25 18:49:00,93.4,37.0,29.76,ESE,105,5.0,0.0,14,0.00,,,0.00,103,WeatherHawk,2013-05-26 01:49:00,
2013-05-25 18:52:00,93.2,38.6,29.76,ESE,113,4.0,8.0,15,0.00,,,0.00,113,WeatherHawk,2013-05-26 01:52:00,
2013-05-25 18:53:00,93.2,36.9,29.76,ESE,111,6.0,-999.0,14,0.00,,,0.00,109,WeatherHawk,2013-05-26 01:53:00,
2013-05-25 18:55:00,93.2,36.9,29.76,ESE,102,7.0,8.0,14,0.00,,,0.00,93,WeatherHawk,2013-05-26 01:55:00,
2013-05-25 18:56:00,93.2,36.9,29.76,ESE,115,6.0,8.0,14,0.00,,,0.00,91,WeatherHawk,2013-05-26 01:56:00,
2013-05-25 18:58:00,93.2,36.9,29.76,ESE,115,6.0,8.0,14,0.00,,,0.00,91,WeatherHawk,2013-05-26 01:58:00,
2013-05-25 18:59:00,93.0,36.7,29.76,ESE,123,5.0,8.0,14,0.00,,,0.00,53,WeatherHawk,2013-05-26 01:59:00,
2013-05-25 19:00:00,93.0,36.7,29.76,SE,129,6.0,8.0,14,0.00,,,0.00,47,WeatherHawk,2013-05-26 02:00:00,
2013-05-25 19:03:00,92.8,38.4,29.76,SE,141,5.0,8.0,15,0.00,,,0.00,52,WeatherHawk,2013-05-26 02:03:00,
2013-05-25 19:05:00,92.7,36.5,29.76,South,176,6.0,8.0,14,0.00,,,0.00,77,WeatherHawk,2013-05-26 02:05:00,
2013-05-25 19:07:00,92.8,38.4,29.76,SSW,210,6.0,8.0,15,0.00,,,0.00,74,WeatherHawk,2013-05-26 02:07:00,
2013-05-25 19:08:00,92.7,39.9,29.76,South,190,7.0,-999.0,16,0.00,,,0.00,71,WeatherHawk,2013-05-26 02:08:00,
2013-05-25 19:13:00,91.9,42.3,29.76,SW,218,9.0,11.0,18,0.00,,,0.00,51,WeatherHawk,2013-05-26 02:13:00,
2013-05-25 19:16:00,91.0,41.6,29.77,SW,214,8.0,11.0,18,0.00,,,0.00,43,WeatherHawk,2013-05-26 02:16:00,
2013-05-25 19:18:00,91.0,41.6,29.77,SW,214,8.0,11.0,18,0.00,,,0.00,43,WeatherHawk,2013-05-26 02:18:00,
2013-05-25 19:23:00,90.1,42.3,29.77,WSW,237,5.0,0.0,19,0.00,,,0.00,26,WeatherHawk,2013-05-26 02:23:00,
2013-05-25 19:28:00,89.8,42.0,29.77,SSW,210,6.0,-999.0,19,0.00,,,0.00,20,WeatherHawk,2013-05-26 02:28:00,
2013-05-25 19:31:00,89.2,38.7,29.77,SW,215,8.0,0.0,17,0.00,,,0.00,11,WeatherHawk,2013-05-26 02:31:00,
2013-05-25 19:33:00,89.2,38.7,29.77,SW,215,8.0,9.0,17,0.00,,,0.00,11,WeatherHawk,2013-05-26 02:33:00,
2013-05-25 19:36:00,88.9,38.4,29.77,SW,222,7.0,9.0,17,0.00,,,0.00,7,WeatherHawk,2013-05-26 02:36:00,
2013-05-25 19:39:00,88.7,38.3,29.77,SW,219,8.0,9.0,17,0.00,,,0.00,5,WeatherHawk,2013-05-26 02:39:00,
2013-05-25 19:42:00,88.5,38.1,29.78,SW,229,8.0,9.0,17,0.00,,,0.00,5,WeatherHawk,2013-05-26 02:42:00,
2013-05-25 19:43:00,88.5,38.1,29.78,SW,229,8.0,9.0,17,0.00,,,0.00,5,WeatherHawk,2013-05-26 02:43:00,
2013-05-25 19:44:00,88.2,37.8,29.78,SW,232,8.0,9.0,17,0.00,,,0.00,3,WeatherHawk,2013-05-26 02:44:00,
2013-05-25 19:45:00,88.2,39.3,29.78,SW,228,7.0,9.0,18,0.00,,,0.00,1,WeatherHawk,2013-05-26 02:45:00,
2013-05-25 19:48:00,88.0,39.1,29.78,SW,232,8.0,0.0,18,0.00,,,0.00,1,WeatherHawk,2013-05-26 02:48:00,
2013-05-25 19:53:00,87.8,39.0,29.78,SW,232,6.0,8.0,18,0.00,,,0.00,1,WeatherHawk,2013-05-26 02:53:00,
2013-05-25 19:55:00,87.3,39.9,29.78,WSW,238,6.0,8.0,19,0.00,,,0.00,0,WeatherHawk,2013-05-26 02:55:00,
2013-05-25 19:57:00,86.9,41.0,29.78,WSW,238,5.0,8.0,20,0.00,,,0.00,0,WeatherHawk,2013-05-26 02:57:00,
2013-05-25 20:02:00,86.5,41.9,29.78,SW,229,7.0,0.0,21,0.00,,,0.00,0,WeatherHawk,2013-05-26 03:02:00,
2013-05-25 20:03:00,85.8,42.5,29.78,SW,218,6.0,0.0,22,0.00,,,0.00,0,WeatherHawk,2013-05-26 03:03:00,
2013-05-25 20:05:00,85.8,42.5,29.78,SW,217,6.0,0.0,22,0.00,,,0.00,0,WeatherHawk,2013-05-26 03:05:00,
2013-05-25 20:11:00,85.5,42.2,29.78,SW,215,7.0,0.0,22,0.00,,,0.00,0,WeatherHawk,2013-05-26 03:11:00,
2013-05-25 20:12:00,85.5,42.2,29.78,SW,215,7.0,0.0,22,0.00,,,0.00,0,WeatherHawk,2013-05-26 03:12:00,
2013-05-25 20:17:00,85.3,43.3,29.79,SW,225,8.0,8.0,23,0.00,,,0.00,1,WeatherHawk,2013-05-26 03:17:00,
2013-05-25 20:22:00,84.7,43.9,29.79,WSW,240,6.0,0.0,24,0.00,,,0.00,0,WeatherHawk,2013-05-26 03:22:00,
2013-05-25 20:26:00,83.8,44.2,29.79,West,262,5.0,0.0,25,0.00,,,0.00,0,WeatherHawk,2013-05-26 03:26:00,
2013-05-25 20:27:00,83.8,44.2,29.79,West,262,5.0,0.0,25,0.00,,,0.00,0,WeatherHawk,2013-05-26 03:27:00,
2013-05-25 20:29:00,83.3,43.8,29.79,WSW,237,7.0,0.0,25,0.00,,,0.00,0,WeatherHawk,2013-05-26 03:29:00,
2013-05-25 20:32:00,82.9,43.5,29.79,SW,233,7.0,-999.0,25,0.00,,,0.00,0,WeatherHawk,2013-05-26 03:32:00,
2013-05-25 20:35:00,82.8,42.3,29.79,WSW,237,7.0,0.0,24,0.00,,,0.00,0,WeatherHawk,2013-05-26 03:35:00,
2013-05-25 20:36:00,82.9,42.4,29.79,SW,236,7.0,0.0,24,0.00,,,0.00,0,WeatherHawk,2013-05-26 03:36:00,
2013-05-25 20:39:00,82.9,42.4,29.80,WSW,248,6.0,0.0,24,0.00,,,0.00,0,WeatherHawk,2013-05-26 03:39:00,
2013-05-25 20:42:00,82.9,42.4,29.80,WSW,243,6.0,9.0,24,0.00,,,0.00,0,WeatherHawk,2013-05-26 03:42:00,
2013-05-25 20:43:00,82.8,42.3,29.80,WSW,249,6.0,9.0,24,0.00,,,0.00,0,WeatherHawk,2013-05-26 03:43:00,
2013-05-25 20:46:00,82.4,42.0,29.80,West,260,5.0,9.0,24,0.00,,,0.00,0,WeatherHawk,2013-05-26 03:46:00,
2013-05-25 20:48:00,82.0,42.7,29.80,West,265,6.0,0.0,25,0.00,,,0.00,0,WeatherHawk,2013-05-26 03:48:00,
2013-05-25 20:50:00,81.5,44.3,29.81,WNW,287,6.0,0.0,27,0.00,,,0.00,0,WeatherHawk,2013-05-26 03:50:00,
2013-05-25 20:54:00,80.6,45.4,29.81,West,277,5.0,0.0,29,0.00,,,0.00,0,WeatherHawk,2013-05-26 03:54:00,
2013-05-25 20:57:00,79.9,44.8,29.81,West,266,5.0,0.0,29,0.00,,,0.00,0,WeatherHawk,2013-05-26 03:57:00,
2013-05-25 20:58:00,79.7,44.6,29.81,West,262,6.0,0.0,29,0.00,,,0.00,0,WeatherHawk,2013-05-26 03:58:00,
2013-05-25 21:02:00,79.7,44.6,29.81,West,262,6.0,0.0,29,0.00,,,0.00,0,WeatherHawk,2013-05-26 04:02:00,
2013-05-25 21:06:00,80.4,43.4,29.81,West,259,3.0,8.0,27,0.00,,,0.00,0,WeatherHawk,2013-05-26 04:06:00,
2013-05-25 21:07:00,80.6,43.5,29.81,WSW,257,4.0,8.0,27,0.00,,,0.00,0,WeatherHawk,2013-05-26 04:07:00,
2013-05-25 21:09:00,80.6,43.5,29.81,West,269,4.0,0.0,27,0.00,,,0.00,0,WeatherHawk,2013-05-26 04:09:00,
2013-05-25 21:10:00,80.6,43.5,29.81,West,263,3.0,0.0,27,0.00,,,0.00,0,WeatherHawk,2013-05-26 04:10:00,
2013-05-25 21:11:00,80.6,43.5,29.81,West,266,2.0,0.0,27,0.00,,,0.00,0,WeatherHawk,2013-05-26 04:11:00,
2013-05-25 21:12:00,80.6,43.5,29.81,West,266,2.0,6.0,27,0.00,,,0.00,0,WeatherHawk,2013-05-26 04:12:00,
2013-05-25 21:14:00,80.6,43.5,29.81,WSW,244,2.0,6.0,27,0.00,,,0.00,0,WeatherHawk,2013-05-26 04:14:00,
2013-05-25 21:15:00,80.4,43.4,29.81,WSW,246,2.0,6.0,27,0.00,,,0.00,0,WeatherHawk,2013-05-26 04:15:00,
2013-05-25 21:17:00,80.4,43.4,29.81,SW,230,2.0,6.0,27,0.00,,,0.00,0,WeatherHawk,2013-05-26 04:17:00,
2013-05-25 21:20:00,80.2,43.2,29.82,WSW,254,3.0,4.0,27,0.00,,,0.00,0,WeatherHawk,2013-05-26 04:20:00,
2013-05-25 21:21:00,80.2,43.2,29.82,West,265,2.0,4.0,27,0.00,,,0.00,0,WeatherHawk,2013-05-26 04:21:00,
2013-05-25 21:22:00,80.2,43.2,29.82,WSW,254,3.0,4.0,27,0.00,,,0.00,0,WeatherHawk,2013-05-26 04:22:00,
2013-05-25 21:27:00,80.2,43.2,29.82,WSW,252,2.0,4.0,27,0.00,,,0.00,0,WeatherHawk,2013-05-26 04:27:00,
2013-05-25 21:31:00,80.4,42.4,29.82,West,261,4.0,5.0,26,0.00,,,0.00,0,WeatherHawk,2013-05-26 04:31:00,
2013-05-25 21:32:00,80.4,42.4,29.82,WSW,254,6.0,6.0,26,0.00,,,0.00,0,WeatherHawk,2013-05-26 04:32:00,
2013-05-25 21:35:00,80.6,42.5,29.82,WSW,255,7.0,7.0,26,0.00,,,0.00,0,WeatherHawk,2013-05-26 04:35:00,
2013-05-25 21:37:00,80.6,42.5,29.82,WSW,253,6.0,6.0,26,0.00,,,0.00,0,WeatherHawk,2013-05-26 04:37:00,
2013-05-25 21:42:00,80.1,42.1,29.83,West,268,4.0,0.0,26,0.00,,,0.00,0,WeatherHawk,2013-05-26 04:42:00,
2013-05-25 21:45:00,79.9,41.9,29.83,West,272,5.0,0.0,26,0.00,,,0.00,0,WeatherHawk,2013-05-26 04:45:00,
2013-05-25 21:47:00,79.9,41.9,29.83,West,272,5.0,0.0,26,0.00,,,0.00,0,WeatherHawk,2013-05-26 04:47:00,
2013-05-25 21:48:00,80.1,41.0,29.83,West,273,5.0,0.0,25,0.00,,,0.00,0,WeatherHawk,2013-05-26 04:48:00,
2013-05-25 21:52:00,79.9,40.9,29.83,West,259,4.0,6.0,25,0.00,,,0.00,0,WeatherHawk,2013-05-26 04:52:00,
2013-05-25 21:57:00,79.9,40.9,29.83,SW,219,4.0,-999.0,25,0.00,,,0.00,0,WeatherHawk,2013-05-26 04:57:00,
2013-05-25 21:58:00,79.7,40.7,29.83,SSW,194,2.0,0.0,25,0.00,,,0.00,0,WeatherHawk,2013-05-26 04:58:00,
2013-05-25 22:02:00,79.3,41.5,29.84,South,191,4.0,0.0,26,0.00,,,0.00,0,WeatherHawk,2013-05-26 05:02:00,
2013-05-25 22:03:00,79.2,42.3,29.84,South,182,4.0,0.0,27,0.00,,,0.00,1,WeatherHawk,2013-05-26 05:03:00,
2013-05-25 22:04:00,79.0,43.1,29.84,SSE,165,4.0,0.0,28,0.00,,,0.00,0,WeatherHawk,2013-05-26 05:04:00,
2013-05-25 22:08:00,77.9,43.1,29.84,South,169,6.0,0.0,29,0.00,,,0.00,0,WeatherHawk,2013-05-26 05:08:00,
2013-05-25 22:10:00,77.5,43.6,29.84,SSE,147,5.0,0.0,30,0.00,,,0.00,0,WeatherHawk,2013-05-26 05:10:00,
2013-05-25 22:12:00,77.2,43.3,29.84,SE,143,5.0,0.0,30,0.00,,,0.00,0,WeatherHawk,2013-05-26 05:12:00,
2013-05-25 22:15:00,76.8,43.9,29.84,SE,133,5.0,0.0,31,0.00,,,0.00,0,WeatherHawk,2013-05-26 05:15:00,
2013-05-25 22:17:00,76.6,43.7,29.84,SSE,153,6.0,0.0,31,0.00,,,0.00,0,WeatherHawk,2013-05-26 05:17:00,
2013-05-25 22:18:00,76.6,43.7,29.84,SSE,159,6.0,0.0,31,0.00,,,0.00,0,WeatherHawk,2013-05-26 05:18:00,
2013-05-25 22:19:00,76.8,43.9,29.84,SSE,164,5.0,0.0,31,0.00,,,0.00,0,WeatherHawk,2013-05-26 05:19:00,
2013-05-25 22:22:00,76.8,43.9,29.84,South,174,4.0,-999.0,31,0.00,,,0.00,0,WeatherHawk,2013-05-26 05:22:00,
2013-05-25 22:24:00,77.4,42.6,29.84,South,184,6.0,0.0,29,0.00,,,0.00,0,WeatherHawk,2013-05-26 05:24:00,
2013-05-25 22:25:00,77.5,42.8,29.84,SSW,192,5.0,0.0,29,0.00,,,0.00,0,WeatherHawk,2013-05-26 05:25:00,
2013-05-25 22:26:00,77.7,42.9,29.84,SSW,194,4.0,0.0,29,0.00,,,0.00,1,WeatherHawk,2013-05-26 05:26:00,
2013-05-25 22:28:00,77.5,43.6,29.84,SSW,202,4.0,0.0,30,0.00,,,0.00,0,WeatherHawk,2013-05-26 05:28:00,
2013-05-25 22:32:00,77.5,42.8,29.84,SW,220,5.0,-999.0,29,0.00,,,0.00,0,WeatherHawk,2013-05-26 05:32:00,
2013-05-25 22:35:00,77.5,41.8,29.84,SSW,213,4.0,0.0,28,0.00,,,0.00,0,WeatherHawk,2013-05-26 05:35:00,
2013-05-25 22:36:00,77.5,41.8,29.84,South,189,4.0,0.0,28,0.00,,,0.00,0,WeatherHawk,2013-05-26 05:36:00,
2013-05-25 22:37:00,77.5,41.8,29.84,South,189,4.0,-999.0,28,0.00,,,0.00,0,WeatherHawk,2013-05-26 05:37:00,
2013-05-25 22:42:00,77.7,42.0,29.84,SSW,201,4.0,0.0,28,0.00,,,0.00,0,WeatherHawk,2013-05-26 05:42:00,
2013-05-25 22:46:00,77.9,42.1,29.84,SSW,206,4.0,0.0,28,0.00,,,0.00,0,WeatherHawk,2013-05-26 05:46:00,
2013-05-25 22:47:00,77.9,41.2,29.84,SSW,212,4.0,0.0,27,0.00,,,0.00,0,WeatherHawk,2013-05-26 05:47:00,
2013-05-25 22:49:00,77.7,42.0,29.84,SSW,202,6.0,6.0,28,0.00,,,0.00,0,WeatherHawk,2013-05-26 05:49:00,
2013-05-25 22:51:00,77.5,40.9,29.84,SSW,198,6.0,6.0,27,0.00,,,0.00,0,WeatherHawk,2013-05-26 05:51:00,
2013-05-25 22:52:00,77.5,40.9,29.84,SSW,198,6.0,6.0,27,0.00,,,0.00,0,WeatherHawk,2013-05-26 05:52:00,
2013-05-25 22:57:00,77.9,38.2,29.84,SW,230,6.0,6.0,24,0.00,,,0.00,0,WeatherHawk,2013-05-26 05:57:00,
2013-05-25 23:00:00,78.4,36.4,29.84,WSW,240,5.0,0.0,22,0.00,,,0.00,0,WeatherHawk,2013-05-26 06:00:00,
2013-05-25 23:02:00,78.4,36.4,29.84,SW,227,5.0,0.0,22,0.00,,,0.00,0,WeatherHawk,2013-05-26 06:02:00,
2013-05-25 23:07:00,78.8,36.7,29.84,WSW,248,5.0,0.0,22,0.00,,,0.00,1,WeatherHawk,2013-05-26 06:07:00,
2013-05-25 23:08:00,78.8,36.7,29.84,WSW,241,5.0,0.0,22,0.00,,,0.00,0,WeatherHawk,2013-05-26 06:08:00,
2013-05-25 23:10:00,78.8,36.7,29.84,WSW,246,5.0,6.0,22,0.00,,,0.00,0,WeatherHawk,2013-05-26 06:10:00,
2013-05-25 23:12:00,78.6,36.6,29.84,WSW,253,5.0,6.0,22,0.00,,,0.00,0,WeatherHawk,2013-05-26 06:12:00,
2013-05-25 23:17:00,78.4,37.6,29.84,West,275,5.0,6.0,23,0.00,,,0.00,0,WeatherHawk,2013-05-26 06:17:00,
2013-05-25 23:22:00,78.1,36.1,29.84,WSW,256,6.0,0.0,22,0.00,,,0.00,0,WeatherHawk,2013-05-26 06:22:00,
2013-05-25 23:27:00,79.2,33.3,29.84,SW,229,6.0,0.0,19,0.00,,,0.00,0,WeatherHawk,2013-05-26 06:27:00,
2013-05-25 23:28:00,79.2,34.6,29.84,NW,307,5.0,0.0,20,0.00,,,0.00,0,WeatherHawk,2013-05-26 06:28:00,
2013-05-25 23:34:00,79.0,34.5,29.84,West,263,4.0,7.0,20,0.00,,,0.00,0,WeatherHawk,2013-05-26 06:34:00,
2013-05-25 23:37:00,79.0,34.5,29.84,WSW,245,4.0,7.0,20,0.00,,,0.00,0,WeatherHawk,2013-05-26 06:37:00,
2013-05-25 23:39:00,79.2,32.0,29.84,West,278,4.0,0.0,18,0.00,,,0.00,0,WeatherHawk,2013-05-26 06:39:00,
2013-05-25 23:40:00,79.3,32.1,29.84,WSW,255,3.0,5.0,18,0.00,,,0.00,0,WeatherHawk,2013-05-26 06:40:00,
2013-05-25 23:41:00,79.3,32.1,29.83,WSW,249,3.0,5.0,18,0.00,,,0.00,1,WeatherHawk,2013-05-26 06:41:00,
2013-05-25 23:42:00,79.3,32.1,29.83,WSW,249,3.0,-999.0,18,0.00,,,0.00,1,WeatherHawk,2013-05-26 06:42:00,
2013-05-25 23:43:00,79.2,32.0,29.84,WSW,250,3.0,5.0,18,0.00,,,0.00,0,WeatherHawk,2013-05-26 06:43:00,
2013-05-25 23:45:00,79.0,31.8,29.84,WSW,246,3.0,5.0,18,0.00,,,0.00,0,WeatherHawk,2013-05-26 06:45:00,
2013-05-25 23:47:00,79.0,31.8,29.84,WSW,246,3.0,5.0,18,0.00,,,0.00,0,WeatherHawk,2013-05-26 06:47:00,
2013-05-25 23:49:00,79.0,31.8,29.84,WSW,248,4.0,0.0,18,0.00,,,0.00,0,WeatherHawk,2013-05-26 06:49:00,
2013-05-25 23:51:00,79.0,30.4,29.84,WSW,256,3.0,5.0,17,0.00,,,0.00,0,WeatherHawk,2013-05-26 06:51:00,
2013-05-25 23:52:00,79.0,30.4,29.84,West,262,3.0,5.0,17,0.00,,,0.00,0,WeatherHawk,2013-05-26 06:52:00,
2013-05-25 23:57:00,79.0,30.4,29.84,West,262,3.0,5.0,17,0.00,,,0.00,0,WeatherHawk,2013-05-26 06:57:00,